Observation data for Fort McKavett on 01/18/2019      Previous  Date  Next       Current Mesonet Observations  Soil Data  Daily Summary Page  Observations in Plain Language
KMC1 180600Z 22003KT 06/04 A3011 RMK A01 T00590035  RH  085%=      5-min Rain = 0
KMC1 180601Z 22003KT 06/04 A3011 RMK A01 T00590035  RH  085%=      5-min Rain = 0
KMC1 180602Z 23003KT 06/04 A3011 RMK A01 T00600036  RH  085%=      5-min Rain = 0
KMC1 180603Z 23003KT 06/04 A3011 RMK A01 T00600035  RH  084%=      5-min Rain = 0
KMC1 180604Z 24002KT 06/04 A3011 RMK A01 T00600036  RH  084%=      5-min Rain = 0
KMC1 180605Z 26003KT 06/04 A3011 RMK A01 T00610036  RH  084%=      5-min Rain = 0
KMC1 180606Z 26003KT 06/04 A3011 RMK A01 T00610036  RH  084%=      5-min Rain = 0
KMC1 180607Z 27003KT 06/04 A3011 RMK A01 T00610037  RH  085%=      5-min Rain = 0
KMC1 180608Z 27003KT 06/04 A3011 RMK A01 T00610038  RH  085%=      5-min Rain = 0
KMC1 180609Z 26003KT 06/04 A3011 RMK A01 T00610039  RH  085%=      5-min Rain = 0
KMC1 180610Z 26003KT 06/04 A3011 RMK A01 T00610038  RH  085%=      5-min Rain = 0
KMC1 180611Z 25003KT 06/04 A3011 RMK A01 T00610039  RH  085%=      5-min Rain = 0
KMC1 180612Z 25003KT 06/04 A3011 RMK A01 T00610038  RH  085%=      5-min Rain = 0
KMC1 180613Z 25003KT 06/04 A3011 RMK A01 T00610038  RH  085%=      5-min Rain = 0
KMC1 180614Z 25003KT 06/04 A3011 RMK A01 T00600038  RH  085%=      5-min Rain = 0
KMC1 180615Z 24003KT 06/04 A3011 RMK A01 T00600038  RH  085%=      5-min Rain = 0
KMC1 180616Z 23003KT 06/04 A301 RMK A01 T00610038  RH  085%=      5-min Rain = 0
KMC1 180617Z 23003KT 06/04 A301 RMK A01 T00610038  RH  085%=      5-min Rain = 0
KMC1 180618Z 22003KT 06/04 A301 RMK A01 T00600037  RH  085%=      5-min Rain = 0
KMC1 180619Z 22003KT 06/04 A301 RMK A01 T00600037  RH  086%=      5-min Rain = 0
KMC1 180620Z 22003KT 06/04 A301 RMK A01 T00600037  RH  086%=      5-min Rain = 0
KMC1 180621Z 22003KT 06/04 A301 RMK A01 T00600037  RH  085%=      5-min Rain = 0
KMC1 180622Z 22003KT 06/04 A301 RMK A01 T00600037  RH  085%=      5-min Rain = 0
KMC1 180623Z 22003KT 06/04 A301 RMK A01 T00600037  RH  085%=      5-min Rain = 0
KMC1 180624Z 22003KT 06/04 A301 RMK A01 T00600037  RH  085%=      5-min Rain = 0
KMC1 180625Z 22003KT 06/04 A301 RMK A01 T00610037  RH  085%=      5-min Rain = 0
KMC1 180626Z 21003KT 06/04 A301 RMK A01 T00610037  RH  085%=      5-min Rain = 0
KMC1 180627Z 20004KT 06/04 A301 RMK A01 T00610037  RH  085%=      5-min Rain = 0
KMC1 180628Z 20004KT 06/04 A301 RMK A01 T00610037  RH  085%=      5-min Rain = 0
KMC1 180629Z 19004KT 06/04 A301 RMK A01 T00620037  RH  084%=      5-min Rain = 0
KMC1 180630Z 20004KT 06/04 A301 RMK A01 T00630038  RH  084%=      5-min Rain = 0
KMC1 180631Z 19004KT 06/04 A301 RMK A01 T00630038  RH  084%=      5-min Rain = 0
KMC1 180632Z 20004KT 06/04 A301 RMK A01 T00640038  RH  083%=      5-min Rain = 0
KMC1 180633Z 19005KT 07/04 A301 RMK A01 T00650038  RH  083%=      5-min Rain = 0
KMC1 180634Z 19005KT 07/04 A301 RMK A01 T00660039  RH  083%=      5-min Rain = 0
KMC1 180635Z 19005KT 07/04 A301 RMK A01 T00670039  RH  082%=      5-min Rain = 0
KMC1 180636Z 19004KT 07/04 A3009 RMK A01 T00680039  RH  082%=      5-min Rain = 0
KMC1 180637Z 19004KT 07/04 A3009 RMK A01 T00680039  RH  082%=      5-min Rain = 0
KMC1 180638Z 19004KT 07/04 A3009 RMK A01 T00690039  RH  081%=      5-min Rain = 0
KMC1 180639Z 20004KT 07/04 A3009 RMK A01 T00690039  RH  081%=      5-min Rain = 0
KMC1 180640Z 19004KT 07/04 A3009 RMK A01 T00690039  RH  081%=      5-min Rain = 0
KMC1 180641Z 20004KT 07/04 A3009 RMK A01 T00690039  RH  081%=      5-min Rain = 0
KMC1 180642Z 20004KT 07/04 A3009 RMK A01 T00690039  RH  081%=      5-min Rain = 0
KMC1 180643Z 19004KT 07/04 A3009 RMK A01 T00690039  RH  081%=      5-min Rain = 0
KMC1 180644Z 20004KT 07/04 A3009 RMK A01 T00690039  RH  081%=      5-min Rain = 0
KMC1 180645Z 20003KT 07/04 A3009 RMK A01 T00690039  RH  081%=      5-min Rain = 0
KMC1 180646Z 21003KT 07/04 A3009 RMK A01 T00690040  RH  081%=      5-min Rain = 0
KMC1 180647Z 22003KT 07/04 A3009 RMK A01 T00690040  RH  081%=      5-min Rain = 0
KMC1 180648Z 22003KT 07/04 A3009 RMK A01 T00690040  RH  081%=      5-min Rain = 0
KMC1 180649Z 22003KT 07/04 A3009 RMK A01 T00690040  RH  081%=      5-min Rain = 0
KMC1 180650Z 23003KT 07/04 A301 RMK A01 T00690040  RH  082%=      5-min Rain = 0
KMC1 180651Z 22003KT 07/04 A301 RMK A01 T00690040  RH  082%=      5-min Rain = 0
KMC1 180652Z 22003KT 07/04 A301 RMK A01 T00690041  RH  082%=      5-min Rain = 0
KMC1 180653Z 22003KT 07/04 A301 RMK A01 T00690040  RH  082%=      5-min Rain = 0
KMC1 180654Z 22003KT 07/04 A3009 RMK A01 T00690040  RH  082%=      5-min Rain = 0
KMC1 180655Z 22003KT 07/04 A3009 RMK A01 T00690040  RH  082%=      5-min Rain = 0
KMC1 180656Z 21004KT 07/04 A3009 RMK A01 T00690040  RH  082%=      5-min Rain = 0
KMC1 180657Z 22004KT 07/04 A3009 RMK A01 T00690040  RH  082%=      5-min Rain = 0
KMC1 180658Z 21004KT 07/04 A3009 RMK A01 T00680040  RH  082%=      5-min Rain = 0
KMC1 180659Z 21004KT 07/04 A3009 RMK A01 T00680040  RH  083%=      5-min Rain = 0
KMC1 180700Z 21004KT 07/04 A3009 RMK A01 T00670040  RH  083%=      5-min Rain = 0
KMC1 180701Z 21005KT 07/04 A3009 RMK A01 T00680041  RH  083%=      5-min Rain = 0
KMC1 180702Z 20005KT 07/04 A3009 RMK A01 T00690042  RH  083%=      5-min Rain = 0
KMC1 180703Z 19005KT 07/04 A3009 RMK A01 T00700043  RH  083%=      5-min Rain = 0
KMC1 180704Z 19005KT 07/05 A3009 RMK A01 T00710045  RH  084%=      5-min Rain = 0
KMC1 180705Z 19006KT 07/05 A3009 RMK A01 T00730046  RH  083%=      5-min Rain = 0
KMC1 180706Z 19006KT 07/05 A3009 RMK A01 T00740049  RH  084%=      5-min Rain = 0
KMC1 180707Z 19006KT 08/05 A3009 RMK A01 T00770051  RH  084%=      5-min Rain = 0
KMC1 180708Z 19006KT 08/05 A3009 RMK A01 T00780052  RH  084%=      5-min Rain = 0
KMC1 180709Z 19006KT 08/05 A3008 RMK A01 T00800053  RH  083%=      5-min Rain = 0
KMC1 180710Z 18005KT 08/06 A3008 RMK A01 T00820055  RH  083%=      5-min Rain = 0
KMC1 180711Z 19005KT 08/06 A3008 RMK A01 T00840057  RH  083%=      5-min Rain = 0
KMC1 180712Z 19005KT 09/06 A3008 RMK A01 T00870059  RH  083%=      5-min Rain = 0
KMC1 180713Z 20005KT 09/06 A3008 RMK A01 T00890059  RH  082%=      5-min Rain = 0
KMC1 180714Z 20005KT 09/06 A3008 RMK A01 T00900060  RH  081%=      5-min Rain = 0
KMC1 180715Z 19005KT 09/06 A3008 RMK A01 T00910060  RH  081%=      5-min Rain = 0
KMC1 180716Z 20005KT 09/06 A3008 RMK A01 T00920060  RH  080%=      5-min Rain = 0
KMC1 180717Z 20005KT 09/06 A3008 RMK A01 T00930060  RH  080%=      5-min Rain = 0
KMC1 180718Z 21005KT 09/06 A3008 RMK A01 T00930060  RH  080%=      5-min Rain = 0
KMC1 180719Z 21005KT 09/06 A3008 RMK A01 T00930060  RH  080%=      5-min Rain = 0
KMC1 180720Z 21005KT 09/06 A3008 RMK A01 T00940060  RH  079%=      5-min Rain = 0
KMC1 180721Z 21004KT 09/06 A3008 RMK A01 T00930060  RH  080%=      5-min Rain = 0
KMC1 180722Z 20005KT 09/06 A3008 RMK A01 T00930060  RH  080%=      5-min Rain = 0
KMC1 180723Z 20005KT 09/06 A3008 RMK A01 T00930060  RH  080%=      5-min Rain = 0
KMC1 180724Z 20004KT 09/06 A3008 RMK A01 T00930061  RH  080%=      5-min Rain = 0
KMC1 180725Z 20004KT 09/06 A3008 RMK A01 T00920061  RH  081%=      5-min Rain = 0
KMC1 180726Z 20004KT 09/06 A3008 RMK A01 T00930061  RH  081%=      5-min Rain = 0
KMC1 180727Z 19004KT 09/06 A3007 RMK A01 T00930061  RH  081%=      5-min Rain = 0
KMC1 180728Z 19004KT 09/06 A3007 RMK A01 T00920061  RH  081%=      5-min Rain = 0
KMC1 180729Z 19004KT 09/06 A3007 RMK A01 T00920062  RH  081%=      5-min Rain = 0
KMC1 180730Z 19004KT 09/06 A3007 RMK A01 T00920062  RH  081%=      5-min Rain = 0
KMC1 180731Z 19005KT 09/06 A3007 RMK A01 T00920062  RH  082%=      5-min Rain = 0
KMC1 180732Z 19005KT 09/06 A3007 RMK A01 T00930063  RH  082%=      5-min Rain = 0
KMC1 180733Z 19006KT 09/06 A3007 RMK A01 T00940064  RH  082%=      5-min Rain = 0
KMC1 180734Z 19006KT 10/07 A3007 RMK A01 T00950065  RH  082%=      5-min Rain = 0
KMC1 180735Z 19004KT 10/07 A3007 RMK A01 T00960066  RH  081%=      5-min Rain = 0
KMC1 180736Z 18006KT 10/07 A3007 RMK A01 T00960066  RH  081%=      5-min Rain = 0
KMC1 180737Z 19005KT 10/07 A3007 RMK A01 T00970067  RH  081%=      5-min Rain = 0
KMC1 180738Z 18005KT 10/07 A3007 RMK A01 T00980067  RH  081%=      5-min Rain = 0
KMC1 180739Z 19004KT 10/07 A3006 RMK A01 T00980067  RH  081%=      5-min Rain = 0
KMC1 180740Z 19006KT 10/07 A3006 RMK A01 T00990068  RH  081%=      5-min Rain = 0
KMC1 180741Z 19005KT 10/07 A3006 RMK A01 T00990068  RH  081%=      5-min Rain = 0
KMC1 180742Z 19004KT 10/07 A3006 RMK A01 T01010069  RH  081%=      5-min Rain = 0
KMC1 180743Z 19005KT 10/07 A3006 RMK A01 T01010069  RH  080%=      5-min Rain = 0
KMC1 180744Z 19005KT 10/07 A3006 RMK A01 T01010069  RH  081%=      5-min Rain = 0
KMC1 180745Z 19005KT 10/07 A3006 RMK A01 T01010070  RH  081%=      5-min Rain = 0
KMC1 180746Z 19006KT 10/07 A3006 RMK A01 T01020070  RH  080%=      5-min Rain = 0
KMC1 180747Z 19005KT 10/07 A3006 RMK A01 T01020070  RH  080%=      5-min Rain = 0
KMC1 180748Z 19005KT 10/07 A3006 RMK A01 T01020070  RH  080%=      5-min Rain = 0
KMC1 180749Z 19004KT 10/07 A3006 RMK A01 T01030070  RH  080%=      5-min Rain = 0
KMC1 180750Z 20005KT 10/07 A3006 RMK A01 T01030070  RH  080%=      5-min Rain = 0
KMC1 180751Z 19005KT 10/07 A3006 RMK A01 T01030070  RH  080%=      5-min Rain = 0
KMC1 180752Z 19004KT 10/07 A3006 RMK A01 T01030071  RH  081%=      5-min Rain = 0
KMC1 180753Z 19005KT 10/07 A3006 RMK A01 T01030071  RH  081%=      5-min Rain = 0
KMC1 180754Z 19005KT 10/07 A3006 RMK A01 T01030071  RH  081%=      5-min Rain = 0
KMC1 180755Z 19006KT 10/07 A3006 RMK A01 T01030072  RH  081%=      5-min Rain = 0
KMC1 180756Z 18005KT 10/07 A3006 RMK A01 T01030072  RH  081%=      5-min Rain = 0
KMC1 180757Z 18005KT 10/07 A3006 RMK A01 T01040073  RH  081%=      5-min Rain = 0
KMC1 180758Z 18006KT 10/07 A3006 RMK A01 T01040073  RH  081%=      5-min Rain = 0
KMC1 180759Z 18005KT 11/07 A3006 RMK A01 T01050073  RH  081%=      5-min Rain = 0
KMC1 180800Z 18005KT 11/07 A3006 RMK A01 T01050074  RH  081%=      5-min Rain = 0
KMC1 180801Z 19005KT 11/07 A3006 RMK A01 T01060074  RH  081%=      5-min Rain = 0
KMC1 180802Z 19005KT 11/07 A3006 RMK A01 T01060074  RH  081%=      5-min Rain = 0
KMC1 180803Z 18005KT 11/07 A3006 RMK A01 T01060074  RH  081%=      5-min Rain = 0
KMC1 180804Z 19004KT 11/07 A3006 RMK A01 T01060074  RH  081%=      5-min Rain = 0
KMC1 180805Z 19004KT 11/07 A3006 RMK A01 T01060074  RH  080%=      5-min Rain = 0
KMC1 180806Z 19005KT 11/07 A3006 RMK A01 T01070074  RH  080%=      5-min Rain = 0
KMC1 180807Z 19004KT 11/07 A3006 RMK A01 T01070074  RH  080%=      5-min Rain = 0
KMC1 180808Z 19004KT 11/08 A3006 RMK A01 T01080075  RH  080%=      5-min Rain = 0
KMC1 180809Z 20004KT 11/08 A3006 RMK A01 T01080075  RH  080%=      5-min Rain = 0
KMC1 180810Z 20004KT 11/07 A3006 RMK A01 T01080074  RH  080%=      5-min Rain = 0
KMC1 180811Z 20004KT 11/08 A3006 RMK A01 T01080075  RH  080%=      5-min Rain = 0
KMC1 180812Z 20005KT 11/08 A3006 RMK A01 T01070075  RH  080%=      5-min Rain = 0
KMC1 180813Z 21004KT 11/07 A3006 RMK A01 T01070074  RH  080%=      5-min Rain = 0
KMC1 180814Z 21004KT 11/07 A3006 RMK A01 T01070074  RH  080%=      5-min Rain = 0
KMC1 180815Z 21005KT 11/07 A3006 RMK A01 T01060074  RH  081%=      5-min Rain = 0
KMC1 180816Z 20004KT 11/07 A3006 RMK A01 T01060074  RH  081%=      5-min Rain = 0
KMC1 180817Z 21004KT 11/07 A3006 RMK A01 T01060074  RH  081%=      5-min Rain = 0
KMC1 180818Z 22004KT 11/07 A3006 RMK A01 T01060074  RH  081%=      5-min Rain = 0
KMC1 180819Z 22005KT 11/07 A3006 RMK A01 T01060074  RH  081%=      5-min Rain = 0
KMC1 180820Z 21004KT 11/08 A3006 RMK A01 T01060075  RH  081%=      5-min Rain = 0
KMC1 180821Z 22005KT 11/07 A3006 RMK A01 T01060074  RH  081%=      5-min Rain = 0
KMC1 180822Z 21004KT 11/07 A3006 RMK A01 T01060074  RH  081%=      5-min Rain = 0
KMC1 180823Z 21004KT 11/07 A3006 RMK A01 T01060074  RH  081%=      5-min Rain = 0
KMC1 180824Z 22004KT 11/07 A3006 RMK A01 T01050074  RH  081%=      5-min Rain = 0
KMC1 180825Z 22005KT 11/07 A3006 RMK A01 T01050074  RH  081%=      5-min Rain = 0
KMC1 180826Z 21005KT 11/07 A3006 RMK A01 T01050074  RH  081%=      5-min Rain = 0
KMC1 180827Z 21005KT 10/07 A3006 RMK A01 T01040074  RH  082%=      5-min Rain = 0
KMC1 180828Z 21004KT 10/07 A3006 RMK A01 T01040074  RH  082%=      5-min Rain = 0
KMC1 180829Z 21004KT 10/07 A3006 RMK A01 T01040074  RH  082%=      5-min Rain = 0
KMC1 180830Z 21004KT 10/08 A3006 RMK A01 T01040075  RH  082%=      5-min Rain = 0
KMC1 180831Z 22004KT 10/07 A3005 RMK A01 T01040074  RH  082%=      5-min Rain = 0
KMC1 180832Z 21004KT 10/08 A3005 RMK A01 T01040075  RH  082%=      5-min Rain = 0
KMC1 180833Z 21004KT 10/07 A3005 RMK A01 T01040074  RH  082%=      5-min Rain = 0
KMC1 180834Z 21003KT 10/07 A3005 RMK A01 T01040074  RH  082%=      5-min Rain = 0
KMC1 180835Z 22004KT 10/07 A3005 RMK A01 T01040074  RH  082%=      5-min Rain = 0
KMC1 180836Z 22004KT 10/07 A3005 RMK A01 T01040074  RH  082%=      5-min Rain = 0
KMC1 180837Z 22004KT 10/07 A3005 RMK A01 T01030074  RH  082%=      5-min Rain = 0
KMC1 180838Z 22004KT 10/07 A3006 RMK A01 T01030074  RH  082%=      5-min Rain = 0
KMC1 180839Z 21004KT 10/07 A3005 RMK A01 T01030074  RH  082%=      5-min Rain = 0
KMC1 180840Z 21004KT 10/07 A3005 RMK A01 T01030074  RH  082%=      5-min Rain = 0
KMC1 180841Z 21004KT 10/07 A3005 RMK A01 T01030074  RH  082%=      5-min Rain = 0
KMC1 180842Z 21004KT 10/07 A3005 RMK A01 T01030074  RH  082%=      5-min Rain = 0
KMC1 180843Z 21004KT 10/07 A3005 RMK A01 T01030074  RH  082%=      5-min Rain = 0
KMC1 180844Z 21004KT 10/07 A3005 RMK A01 T01030074  RH  082%=      5-min Rain = 0
KMC1 180845Z 21004KT 10/07 A3005 RMK A01 T01030074  RH  082%=      5-min Rain = 0
KMC1 180846Z 21004KT 10/07 A3005 RMK A01 T01030074  RH  082%=      5-min Rain = 0
KMC1 180847Z 21004KT 10/07 A3005 RMK A01 T01030074  RH  082%=      5-min Rain = 0
KMC1 180848Z 21003KT 10/07 A3005 RMK A01 T01040074  RH  082%=      5-min Rain = 0
KMC1 180849Z 21004KT 10/08 A3005 RMK A01 T01040075  RH  082%=      5-min Rain = 0
KMC1 180850Z 21004KT 11/08 A3005 RMK A01 T01050075  RH  082%=      5-min Rain = 0
KMC1 180851Z 20005KT 10/07 A3005 RMK A01 T01040074  RH  082%=      5-min Rain = 0
KMC1 180852Z 20004KT 10/08 A3005 RMK A01 T01040075  RH  082%=      5-min Rain = 0
KMC1 180853Z 21004KT 10/08 A3005 RMK A01 T01040075  RH  082%=      5-min Rain = 0
KMC1 180854Z 21005KT 11/08 A3005 RMK A01 T01050076  RH  082%=      5-min Rain = 0
KMC1 180855Z 20004KT 11/08 A3005 RMK A01 T01060076  RH  082%=      5-min Rain = 0
KMC1 180856Z 20004KT 11/08 A3005 RMK A01 T01060076  RH  082%=      5-min Rain = 0
KMC1 180857Z 20004KT 11/08 A3005 RMK A01 T01070076  RH  081%=      5-min Rain = 0
KMC1 180858Z 20004KT 11/08 A3005 RMK A01 T01070076  RH  081%=      5-min Rain = 0
KMC1 180859Z 21004KT 11/08 A3005 RMK A01 T01070076  RH  081%=      5-min Rain = 0
KMC1 180900Z 21004KT 11/08 A3005 RMK A01 T01070076  RH  081%=      5-min Rain = 0
KMC1 180901Z 21004KT 11/08 A3005 RMK A01 T01080076  RH  081%=      5-min Rain = 0
KMC1 180902Z 21004KT 11/08 A3005 RMK A01 T01080076  RH  081%=      5-min Rain = 0
KMC1 180903Z 21004KT 11/08 A3005 RMK A01 T01080076  RH  081%=      5-min Rain = 0
KMC1 180904Z 21004KT 11/08 A3005 RMK A01 T01080077  RH  081%=      5-min Rain = 0
KMC1 180905Z 22004KT 11/08 A3005 RMK A01 T01080076  RH  081%=      5-min Rain = 0
KMC1 180906Z 22004KT 11/08 A3005 RMK A01 T01080077  RH  081%=      5-min Rain = 0
KMC1 180907Z 22004KT 11/08 A3005 RMK A01 T01090077  RH  081%=      5-min Rain = 0
KMC1 180908Z 22004KT 11/08 A3005 RMK A01 T01080076  RH  081%=      5-min Rain = 0
KMC1 180909Z 22004KT 11/08 A3005 RMK A01 T01080076  RH  081%=      5-min Rain = 0
KMC1 180910Z 21004KT 11/08 A3004 RMK A01 T01070076  RH  081%=      5-min Rain = 0
KMC1 180911Z 21003KT 11/08 A3004 RMK A01 T01070076  RH  081%=      5-min Rain = 0
KMC1 180912Z 21004KT 11/08 A3004 RMK A01 T01070076  RH  081%=      5-min Rain = 0
KMC1 180913Z 21003KT 11/08 A3004 RMK A01 T01070076  RH  081%=      5-min Rain = 0
KMC1 180914Z 21003KT 11/08 A3004 RMK A01 T01060076  RH  082%=      5-min Rain = 0
KMC1 180915Z 21003KT 11/08 A3004 RMK A01 T01060076  RH  082%=      5-min Rain = 0
KMC1 180916Z 21003KT 11/08 A3004 RMK A01 T01060076  RH  082%=      5-min Rain = 0
KMC1 180917Z 21003KT 11/08 A3004 RMK A01 T01060076  RH  082%=      5-min Rain = 0
KMC1 180918Z 21003KT 11/08 A3004 RMK A01 T01060076  RH  082%=      5-min Rain = 0
KMC1 180919Z 21003KT 11/08 A3004 RMK A01 T01060076  RH  082%=      5-min Rain = 0
KMC1 180920Z 21004KT 11/08 A3004 RMK A01 T01060076  RH  082%=      5-min Rain = 0
KMC1 180921Z 21004KT 11/08 A3004 RMK A01 T01060076  RH  082%=      5-min Rain = 0
KMC1 180922Z 21003KT 11/08 A3004 RMK A01 T01060076  RH  082%=      5-min Rain = 0
KMC1 180923Z 21003KT 11/08 A3004 RMK A01 T01060076  RH  082%=      5-min Rain = 0
KMC1 180924Z 21003KT 11/08 A3004 RMK A01 T01060076  RH  082%=      5-min Rain = 0
KMC1 180925Z 20003KT 11/08 A3004 RMK A01 T01060076  RH  082%=      5-min Rain = 0
KMC1 180926Z 20004KT 11/08 A3004 RMK A01 T01060077  RH  082%=      5-min Rain = 0
KMC1 180927Z 20004KT 11/08 A3003 RMK A01 T01060076  RH  082%=      5-min Rain = 0
KMC1 180928Z 20004KT 11/08 A3003 RMK A01 T01070076  RH  082%=      5-min Rain = 0
KMC1 180929Z 20004KT 11/08 A3003 RMK A01 T01070076  RH  082%=      5-min Rain = 0
KMC1 180930Z 20004KT 11/08 A3003 RMK A01 T01070076  RH  082%=      5-min Rain = 0
KMC1 180931Z 21004KT 11/08 A3003 RMK A01 T01070077  RH  082%=      5-min Rain = 0
KMC1 180932Z 21004KT 11/08 A3003 RMK A01 T01070077  RH  082%=      5-min Rain = 0
KMC1 180933Z 21004KT 11/08 A3003 RMK A01 T01060076  RH  082%=      5-min Rain = 0
KMC1 180934Z 20004KT 11/08 A3003 RMK A01 T01060077  RH  082%=      5-min Rain = 0
KMC1 180935Z 20004KT 11/08 A3003 RMK A01 T01060077  RH  082%=      5-min Rain = 0
KMC1 180936Z 20003KT 11/08 A3003 RMK A01 T01060077  RH  082%=      5-min Rain = 0
KMC1 180937Z 19004KT 11/08 A3003 RMK A01 T01060077  RH  082%=      5-min Rain = 0
KMC1 180938Z 19004KT 11/08 A3003 RMK A01 T01060077  RH  082%=      5-min Rain = 0
KMC1 180939Z 19004KT 11/08 A3003 RMK A01 T01060077  RH  082%=      5-min Rain = 0
KMC1 180940Z 18004KT 11/08 A3003 RMK A01 T01060077  RH  082%=      5-min Rain = 0
KMC1 180941Z 18004KT 11/08 A3003 RMK A01 T01060077  RH  082%=      5-min Rain = 0
KMC1 180942Z 19003KT 11/08 A3003 RMK A01 T01070077  RH  082%=      5-min Rain = 0
KMC1 180943Z 19004KT 11/08 A3003 RMK A01 T01070077  RH  082%=      5-min Rain = 0
KMC1 180944Z 19004KT 11/08 A3002 RMK A01 T01070077  RH  082%=      5-min Rain = 0
KMC1 180945Z 18004KT 11/08 A3002 RMK A01 T01070076  RH  082%=      5-min Rain = 0
KMC1 180946Z 18004KT 11/08 A3002 RMK A01 T01070076  RH  081%=      5-min Rain = 0
KMC1 180947Z 19004KT 11/08 A3002 RMK A01 T01070076  RH  081%=      5-min Rain = 0
KMC1 180948Z 19004KT 11/08 A3002 RMK A01 T01070076  RH  081%=      5-min Rain = 0
KMC1 180949Z 18004KT 11/08 A3002 RMK A01 T01080076  RH  080%=      5-min Rain = 0
KMC1 180950Z 19004KT 11/08 A3002 RMK A01 T01090076  RH  080%=      5-min Rain = 0
KMC1 180951Z 18004KT 11/08 A3002 RMK A01 T01100075  RH  079%=      5-min Rain = 0
KMC1 180952Z 18005KT 11/08 A3002 RMK A01 T01100075  RH  079%=      5-min Rain = 0
KMC1 180953Z 18005KT 11/08 A3002 RMK A01 T01110076  RH  079%=      5-min Rain = 0
KMC1 180954Z 18004KT 11/08 A3002 RMK A01 T01110075  RH  078%=      5-min Rain = 0
KMC1 180955Z 19004KT 11/08 A3002 RMK A01 T01120075  RH  078%=      5-min Rain = 0
KMC1 180956Z 19005KT 11/08 A3002 RMK A01 T01120075  RH  078%=      5-min Rain = 0
KMC1 180957Z 19005KT 11/08 A3002 RMK A01 T01120075  RH  078%=      5-min Rain = 0
KMC1 180958Z 20005KT 11/08 A3002 RMK A01 T01130075  RH  078%=      5-min Rain = 0
KMC1 180959Z 20004KT 11/08 A3002 RMK A01 T01130075  RH  077%=      5-min Rain = 0
KMC1 181000Z 20005KT 11/08 A3002 RMK A01 T01140075  RH  077%=      5-min Rain = 0
KMC1 181001Z 19005KT 12/08 A3002 RMK A01 T01150075  RH  077%=      5-min Rain = 0
KMC1 181002Z 19005KT 12/08 A3002 RMK A01 T01150075  RH  076%=      5-min Rain = 0
KMC1 181003Z 20005KT 12/08 A3002 RMK A01 T01160075  RH  076%=      5-min Rain = 0
KMC1 181004Z 19005KT 12/08 A3002 RMK A01 T01170075  RH  075%=      5-min Rain = 0
KMC1 181005Z 20005KT 12/07 A3002 RMK A01 T01170074  RH  075%=      5-min Rain = 0
KMC1 181006Z 20006KT 12/08 A3002 RMK A01 T01180075  RH  075%=      5-min Rain = 0
KMC1 181007Z 21005KT 12/08 A3002 RMK A01 T01180075  RH  075%=      5-min Rain = 0
KMC1 181008Z 20005KT 12/08 A3002 RMK A01 T01180075  RH  075%=      5-min Rain = 0
KMC1 181009Z 21004KT 12/08 A3002 RMK A01 T01180075  RH  075%=      5-min Rain = 0
KMC1 181010Z 21005KT 12/08 A3002 RMK A01 T01180075  RH  075%=      5-min Rain = 0
KMC1 181011Z 21004KT 12/08 A3002 RMK A01 T01170075  RH  075%=      5-min Rain = 0
KMC1 181012Z 22004KT 12/08 A3002 RMK A01 T01160075  RH  076%=      5-min Rain = 0
KMC1 181013Z 22004KT 12/08 A3001 RMK A01 T01160075  RH  076%=      5-min Rain = 0
KMC1 181014Z 23004KT 12/08 A3001 RMK A01 T01150075  RH  076%=      5-min Rain = 0
KMC1 181015Z 23004KT 12/08 A3001 RMK A01 T01150075  RH  076%=      5-min Rain = 0
KMC1 181016Z 24003KT 11/07 A3001 RMK A01 T01130074  RH  077%=      5-min Rain = 0
KMC1 181017Z 24003KT 11/07 A3001 RMK A01 T01120074  RH  077%=      5-min Rain = 0
KMC1 181018Z 25003KT 11/07 A3001 RMK A01 T01110074  RH  078%=      5-min Rain = 0
KMC1 181019Z 23003KT 11/07 A3001 RMK A01 T01110074  RH  078%=      5-min Rain = 0
KMC1 181020Z 24003KT 11/07 A3001 RMK A01 T01100074  RH  078%=      5-min Rain = 0
KMC1 181021Z 24003KT 11/07 A3001 RMK A01 T01090074  RH  079%=      5-min Rain = 0
KMC1 181022Z 24002KT 11/07 A3001 RMK A01 T01080074  RH  079%=      5-min Rain = 0
KMC1 181023Z 25002KT 11/07 A3001 RMK A01 T01080074  RH  080%=      5-min Rain = 0
KMC1 181024Z 25002KT 11/07 A3001 RMK A01 T01070074  RH  080%=      5-min Rain = 0
KMC1 181025Z 25002KT 11/07 A3001 RMK A01 T01060074  RH  080%=      5-min Rain = 0
KMC1 181026Z 24003KT 11/07 A3001 RMK A01 T01050074  RH  081%=      5-min Rain = 0
KMC1 181027Z 25003KT 10/07 A3001 RMK A01 T01040074  RH  081%=      5-min Rain = 0
KMC1 181028Z 24002KT 10/07 A3001 RMK A01 T01040074  RH  082%=      5-min Rain = 0
KMC1 181029Z 24003KT 10/07 A3001 RMK A01 T01030074  RH  082%=      5-min Rain = 0
KMC1 181030Z 24003KT 10/07 A30 RMK A01 T01030074  RH  082%=      5-min Rain = 0
KMC1 181031Z 23002KT 10/07 A30 RMK A01 T01030074  RH  083%=      5-min Rain = 0
KMC1 181032Z 24002KT 10/07 A30 RMK A01 T01030074  RH  083%=      5-min Rain = 0
KMC1 181033Z 23003KT 10/07 A30 RMK A01 T01020074  RH  083%=      5-min Rain = 0
KMC1 181034Z 23003KT 10/07 A30 RMK A01 T01020074  RH  083%=      5-min Rain = 0
KMC1 181035Z 22003KT 10/07 A30 RMK A01 T01020074  RH  083%=      5-min Rain = 0
KMC1 181036Z 22003KT 10/07 A30 RMK A01 T01020074  RH  083%=      5-min Rain = 0
KMC1 181037Z 21003KT 10/07 A30 RMK A01 T01020074  RH  083%=      5-min Rain = 0
KMC1 181038Z 21003KT 10/07 A30 RMK A01 T01020074  RH  083%=      5-min Rain = 0
KMC1 181039Z 21003KT 10/07 A30 RMK A01 T01020074  RH  083%=      5-min Rain = 0
KMC1 181040Z 21004KT 10/07 A30 RMK A01 T01020073  RH  082%=      5-min Rain = 0
KMC1 181041Z 20004KT 10/07 A30 RMK A01 T01020073  RH  082%=      5-min Rain = 0
KMC1 181042Z 20004KT 10/07 A30 RMK A01 T01030073  RH  082%=      5-min Rain = 0
KMC1 181043Z 20004KT 10/07 A30 RMK A01 T01040074  RH  081%=      5-min Rain = 0
KMC1 181044Z 20004KT 10/07 A30 RMK A01 T01040073  RH  081%=      5-min Rain = 0
KMC1 181045Z 20004KT 11/07 A2999 RMK A01 T01050074  RH  081%=      5-min Rain = 0
KMC1 181046Z 19004KT 11/07 A2999 RMK A01 T01050073  RH  081%=      5-min Rain = 0
KMC1 181047Z 20004KT 11/07 A2999 RMK A01 T01060074  RH  080%=      5-min Rain = 0
KMC1 181048Z 19005KT 11/07 A2999 RMK A01 T01060074  RH  080%=      5-min Rain = 0
KMC1 181049Z 18004KT 11/07 A2999 RMK A01 T01070073  RH  080%=      5-min Rain = 0
KMC1 181050Z 19004KT 11/07 A2999 RMK A01 T01080073  RH  079%=      5-min Rain = 0
KMC1 181051Z 19004KT 11/07 A2999 RMK A01 T01090073  RH  078%=      5-min Rain = 0
KMC1 181052Z 19004KT 11/07 A2999 RMK A01 T01100073  RH  078%=      5-min Rain = 0
KMC1 181053Z 19004KT 11/07 A2999 RMK A01 T01110073  RH  077%=      5-min Rain = 0
KMC1 181054Z 19003KT 11/07 A2999 RMK A01 T01120073  RH  077%=      5-min Rain = 0
KMC1 181055Z 19004KT 11/07 A2999 RMK A01 T01120072  RH  077%=      5-min Rain = 0
KMC1 181056Z 20003KT 11/07 A2999 RMK A01 T01130073  RH  076%=      5-min Rain = 0
KMC1 181057Z 19005KT 11/07 A2999 RMK A01 T01130073  RH  076%=      5-min Rain = 0
KMC1 181058Z 19005KT 12/07 A2999 RMK A01 T01150073  RH  075%=      5-min Rain = 0
KMC1 181059Z 19006KT 12/07 A2999 RMK A01 T01160073  RH  075%=      5-min Rain = 0
KMC1 181100Z 19005KT 12/07 A2999 RMK A01 T01170073  RH  075%=      5-min Rain = 0
KMC1 181101Z 19006KT 12/07 A2999 RMK A01 T01170073  RH  074%=      5-min Rain = 0
KMC1 181102Z 20005KT 12/07 A2999 RMK A01 T01170074  RH  075%=      5-min Rain = 0
KMC1 181103Z 19005KT 12/07 A2999 RMK A01 T01170074  RH  075%=      5-min Rain = 0
KMC1 181104Z 19006KT 12/07 A2999 RMK A01 T01180074  RH  074%=      5-min Rain = 0
KMC1 181105Z 20005KT 12/07 A2998 RMK A01 T01180074  RH  074%=      5-min Rain = 0
KMC1 181106Z 19005G10KT 12/07 A2998 RMK A01 T01180074  RH  074%=      5-min Rain = 0
KMC1 181107Z 20006KT 12/07 A2999 RMK A01 T01190074  RH  074%=      5-min Rain = 0
KMC1 181108Z 20005KT 12/07 A2999 RMK A01 T01190074  RH  074%=      5-min Rain = 0
KMC1 181109Z 21005KT 12/07 A2999 RMK A01 T01190074  RH  074%=      5-min Rain = 0
KMC1 181110Z 20005KT 12/07 A2999 RMK A01 T01200074  RH  074%=      5-min Rain = 0
KMC1 181111Z 21005KT 12/07 A2999 RMK A01 T01200074  RH  074%=      5-min Rain = 0
KMC1 181112Z 21005KT 12/07 A2999 RMK A01 T01190074  RH  074%=      5-min Rain = 0
KMC1 181113Z 21004KT 12/07 A2998 RMK A01 T01190074  RH  074%=      5-min Rain = 0
KMC1 181114Z 21004KT 12/07 A2998 RMK A01 T01180074  RH  074%=      5-min Rain = 0
KMC1 181115Z 21005KT 12/07 A2998 RMK A01 T01180074  RH  074%=      5-min Rain = 0
KMC1 181116Z 22004KT 12/07 A2998 RMK A01 T01180074  RH  074%=      5-min Rain = 0
KMC1 181117Z 21004KT 12/07 A2998 RMK A01 T01180074  RH  074%=      5-min Rain = 0
KMC1 181118Z 20003KT 12/07 A2998 RMK A01 T01180074  RH  075%=      5-min Rain = 0
KMC1 181119Z 20005KT 12/07 A2998 RMK A01 T01170074  RH  075%=      5-min Rain = 0
KMC1 181120Z 21005KT 12/07 A2998 RMK A01 T01160074  RH  075%=      5-min Rain = 0
KMC1 181121Z 21004KT 12/07 A2998 RMK A01 T01160074  RH  075%=      5-min Rain = 0
KMC1 181122Z 22004KT 12/07 A2998 RMK A01 T01160074  RH  075%=      5-min Rain = 0
KMC1 181123Z 22003KT 12/07 A2998 RMK A01 T01160074  RH  076%=      5-min Rain = 0
KMC1 181124Z 22003KT 12/07 A2998 RMK A01 T01150074  RH  076%=      5-min Rain = 0
KMC1 181125Z 25002KT 11/07 A2998 RMK A01 T01140074  RH  076%=      5-min Rain = 0
KMC1 181126Z 25003KT 11/07 A2998 RMK A01 T01130073  RH  076%=      5-min Rain = 0
KMC1 181127Z 27003KT 11/07 A2998 RMK A01 T01120072  RH  077%=      5-min Rain = 0
KMC1 181128Z 27003KT 11/07 A2998 RMK A01 T01100072  RH  077%=      5-min Rain = 0
KMC1 181129Z 28003KT 11/07 A2998 RMK A01 T01090072  RH  078%=      5-min Rain = 0
KMC1 181130Z 28003KT 11/07 A2998 RMK A01 T01080072  RH  079%=      5-min Rain = 0
KMC1 181131Z 27003KT 11/07 A2998 RMK A01 T01070072  RH  079%=      5-min Rain = 0
KMC1 181132Z 26003KT 11/07 A2998 RMK A01 T01060072  RH  079%=      5-min Rain = 0
KMC1 181133Z 25003KT 11/07 A2998 RMK A01 T01060072  RH  080%=      5-min Rain = 0
KMC1 181134Z 24002KT 11/07 A2998 RMK A01 T01060073  RH  080%=      5-min Rain = 0
KMC1 181135Z 24002KT 11/07 A2998 RMK A01 T01060072  RH  080%=      5-min Rain = 0
KMC1 181136Z 23004KT 11/07 A2998 RMK A01 T01060072  RH  080%=      5-min Rain = 0
KMC1 181137Z 22004KT 11/07 A2998 RMK A01 T01060072  RH  079%=      5-min Rain = 0
KMC1 181138Z 21003KT 11/07 A2998 RMK A01 T01060072  RH  079%=      5-min Rain = 0
KMC1 181139Z 21003KT 11/07 A2998 RMK A01 T01060072  RH  079%=      5-min Rain = 0
KMC1 181140Z 21004KT 11/07 A2998 RMK A01 T01060072  RH  079%=      5-min Rain = 0
KMC1 181141Z 21003KT 11/07 A2998 RMK A01 T01060072  RH  079%=      5-min Rain = 0
KMC1 181142Z 21003KT 11/07 A2998 RMK A01 T01060072  RH  079%=      5-min Rain = 0
KMC1 181143Z 21003KT 11/07 A2998 RMK A01 T01060072  RH  079%=      5-min Rain = 0
KMC1 181144Z 23003KT 11/07 A2998 RMK A01 T01060072  RH  079%=      5-min Rain = 0
KMC1 181145Z 24003KT 11/07 A2998 RMK A01 T01060072  RH  079%=      5-min Rain = 0
KMC1 181146Z 24003KT 11/07 A2998 RMK A01 T01060072  RH  079%=      5-min Rain = 0
KMC1 181147Z 25003KT 11/07 A2998 RMK A01 T01060072  RH  079%=      5-min Rain = 0
KMC1 181148Z 26002KT 11/07 A2998 RMK A01 T01060072  RH  079%=      5-min Rain = 0
KMC1 181149Z 26002KT 11/07 A2998 RMK A01 T01060072  RH  079%=      5-min Rain = 0
KMC1 181150Z 27002KT 11/07 A2998 RMK A01 T01050071  RH  079%=      5-min Rain = 0
KMC1 181151Z 28002KT 11/07 A2998 RMK A01 T01050071  RH  080%=      5-min Rain = 0
KMC1 181152Z 28002KT 10/07 A2998 RMK A01 T01040071  RH  080%=      5-min Rain = 0
KMC1 181153Z 27002KT 10/07 A2998 RMK A01 T01040071  RH  080%=      5-min Rain = 0
KMC1 181154Z 27002KT 10/07 A2998 RMK A01 T01030071  RH  080%=      5-min Rain = 0
KMC1 181155Z 27002KT 10/07 A2998 RMK A01 T01030071  RH  080%=      5-min Rain = 0
KMC1 181156Z 28002KT 10/07 A2998 RMK A01 T01030071  RH  081%=      5-min Rain = 0
KMC1 181157Z 28002KT 10/07 A2998 RMK A01 T01020071  RH  081%=      5-min Rain = 0
KMC1 181158Z 28002KT 10/07 A2998 RMK A01 T01020071  RH  081%=      5-min Rain = 0
KMC1 181159Z 28002KT 10/07 A2998 RMK A01 T01020071  RH  081%=      5-min Rain = 0
KMC1 181200Z 27002KT 10/07 A2998 RMK A01 T01010070  RH  081%=      5-min Rain = 0
KMC1 181201Z 28003KT 10/07 A2998 RMK A01 T01010071  RH  081%=      5-min Rain = 0
KMC1 181202Z 27003KT 10/07 A2998 RMK A01 T01010071  RH  081%=      5-min Rain = 0
KMC1 181203Z 27003KT 10/07 A2998 RMK A01 T01010070  RH  081%=      5-min Rain = 0
KMC1 181204Z 27004KT 10/07 A2998 RMK A01 T01010071  RH  081%=      5-min Rain = 0
KMC1 181205Z 27004KT 10/07 A2998 RMK A01 T01000070  RH  081%=      5-min Rain = 0
KMC1 181206Z 26004KT 10/07 A2998 RMK A01 T01000070  RH  082%=      5-min Rain = 0
KMC1 181207Z 26004KT 10/07 A2998 RMK A01 T00990070  RH  082%=      5-min Rain = 0
KMC1 181208Z 25004KT 10/07 A2998 RMK A01 T00990070  RH  083%=      5-min Rain = 0
KMC1 181209Z 25004KT 10/07 A2998 RMK A01 T00980070  RH  083%=      5-min Rain = 0
KMC1 181210Z 24004KT 10/07 A2998 RMK A01 T00980071  RH  083%=      5-min Rain = 0
KMC1 181211Z 23004KT 10/07 A2998 RMK A01 T00980071  RH  083%=      5-min Rain = 0
KMC1 181212Z 23004KT 10/07 A2998 RMK A01 T00980071  RH  083%=      5-min Rain = 0
KMC1 181213Z 22004KT 10/07 A2998 RMK A01 T00990071  RH  083%=      5-min Rain = 0
KMC1 181214Z 21004KT 10/07 A2998 RMK A01 T01000071  RH  082%=      5-min Rain = 0
KMC1 181215Z 21003KT 10/07 A2998 RMK A01 T01000071  RH  082%=      5-min Rain = 0
KMC1 181216Z 20003KT 10/07 A2997 RMK A01 T01010071  RH  082%=      5-min Rain = 0
KMC1 181217Z 20002KT 10/07 A2997 RMK A01 T01020071  RH  081%=      5-min Rain = 0
KMC1 181218Z 20003KT 10/07 A2998 RMK A01 T01020071  RH  081%=      5-min Rain = 0
KMC1 181219Z 20003KT 10/07 A2998 RMK A01 T01020071  RH  081%=      5-min Rain = 0
KMC1 181220Z 20003KT 10/07 A2998 RMK A01 T01020071  RH  081%=      5-min Rain = 0
KMC1 181221Z 20003KT 10/07 A2998 RMK A01 T01020071  RH  081%=      5-min Rain = 0
KMC1 181222Z 20002KT 10/07 A2997 RMK A01 T01020071  RH  081%=      5-min Rain = 0
KMC1 181223Z 19002KT 10/07 A2997 RMK A01 T01020071  RH  081%=      5-min Rain = 0
KMC1 181224Z 19002KT 10/07 A2997 RMK A01 T01020071  RH  081%=      5-min Rain = 0
KMC1 181225Z 20002KT 10/07 A2997 RMK A01 T01020071  RH  081%=      5-min Rain = 0
KMC1 181226Z 20002KT 10/07 A2997 RMK A01 T01020071  RH  081%=      5-min Rain = 0
KMC1 181227Z 19002KT 10/07 A2997 RMK A01 T01020071  RH  081%=      5-min Rain = 0
KMC1 181228Z 19002KT 10/07 A2997 RMK A01 T01030071  RH  081%=      5-min Rain = 0
KMC1 181229Z 20001KT 10/07 A2997 RMK A01 T01030071  RH  081%=      5-min Rain = 0
KMC1 181230Z 20001KT 10/07 A2997 RMK A01 T01030071  RH  081%=      5-min Rain = 0
KMC1 181231Z 21001KT 10/07 A2997 RMK A01 T01030071  RH  081%=      5-min Rain = 0
KMC1 181232Z 22001KT 10/07 A2997 RMK A01 T01030071  RH  081%=      5-min Rain = 0
KMC1 181233Z 22001KT 10/07 A2997 RMK A01 T01030071  RH  081%=      5-min Rain = 0
KMC1 181234Z 21001KT 10/07 A2997 RMK A01 T01030071  RH  081%=      5-min Rain = 0
KMC1 181235Z 21001KT 10/07 A2997 RMK A01 T01030071  RH  080%=      5-min Rain = 0
KMC1 181236Z 22002KT 10/07 A2997 RMK A01 T01030071  RH  080%=      5-min Rain = 0
KMC1 181237Z 23002KT 10/07 A2997 RMK A01 T01030071  RH  080%=      5-min Rain = 0
KMC1 181238Z 23001KT 10/07 A2997 RMK A01 T01030071  RH  080%=      5-min Rain = 0
KMC1 181239Z 23001KT 10/07 A2997 RMK A01 T01030071  RH  080%=      5-min Rain = 0
KMC1 181240Z 23002KT 10/07 A2997 RMK A01 T01040071  RH  080%=      5-min Rain = 0
KMC1 181241Z 23002KT 10/07 A2997 RMK A01 T01040071  RH  080%=      5-min Rain = 0
KMC1 181242Z 22002KT 10/07 A2997 RMK A01 T01040071  RH  080%=      5-min Rain = 0
KMC1 181243Z 21002KT 10/07 A2997 RMK A01 T01040070  RH  080%=      5-min Rain = 0
KMC1 181244Z 21003KT 10/07 A2997 RMK A01 T01030070  RH  080%=      5-min Rain = 0
KMC1 181245Z 21003KT 10/07 A2997 RMK A01 T01020070  RH  080%=      5-min Rain = 0
KMC1 181246Z 21004KT 10/07 A2997 RMK A01 T01020070  RH  081%=      5-min Rain = 0
KMC1 181247Z 20004KT 10/07 A2997 RMK A01 T01020070  RH  081%=      5-min Rain = 0
KMC1 181248Z 20004KT 10/07 A2997 RMK A01 T01020070  RH  081%=      5-min Rain = 0
KMC1 181249Z 20004KT 10/07 A2997 RMK A01 T01010070  RH  081%=      5-min Rain = 0
KMC1 181250Z 20004KT 10/07 A2997 RMK A01 T01020071  RH  081%=      5-min Rain = 0
KMC1 181251Z 19004KT 10/07 A2997 RMK A01 T01020070  RH  081%=      5-min Rain = 0
KMC1 181252Z 20004KT 10/07 A2997 RMK A01 T01020071  RH  081%=      5-min Rain = 0
KMC1 181253Z 20004KT 10/07 A2997 RMK A01 T01030071  RH  081%=      5-min Rain = 0
KMC1 181254Z 20005KT 10/07 A2997 RMK A01 T01030071  RH  080%=      5-min Rain = 0
KMC1 181255Z 20004KT 10/07 A2997 RMK A01 T01030071  RH  081%=      5-min Rain = 0
KMC1 181256Z 20005KT 10/07 A2997 RMK A01 T01030071  RH  081%=      5-min Rain = 0
KMC1 181257Z 20004KT 10/07 A2997 RMK A01 T01020071  RH  081%=      5-min Rain = 0
KMC1 181258Z 20004KT 10/07 A2997 RMK A01 T01030071  RH  081%=      5-min Rain = 0
KMC1 181259Z 21004KT 10/07 A2997 RMK A01 T01030071  RH  081%=      5-min Rain = 0
KMC1 181300Z 21004KT 10/07 A2997 RMK A01 T01030071  RH  081%=      5-min Rain = 0
KMC1 181301Z 21004KT 10/07 A2997 RMK A01 T01030071  RH  081%=      5-min Rain = 0
KMC1 181302Z 22004KT 10/07 A2997 RMK A01 T01030071  RH  080%=      5-min Rain = 0
KMC1 181303Z 22004KT 10/07 A2997 RMK A01 T01030070  RH  080%=      5-min Rain = 0
KMC1 181304Z 22004KT 10/07 A2997 RMK A01 T01030070  RH  080%=      5-min Rain = 0
KMC1 181305Z 22004KT 10/07 A2997 RMK A01 T01030071  RH  080%=      5-min Rain = 0
KMC1 181306Z 22005KT 10/07 A2997 RMK A01 T01030071  RH  080%=      5-min Rain = 0
KMC1 181307Z 23004KT 10/07 A2997 RMK A01 T01030071  RH  080%=      5-min Rain = 0
KMC1 181308Z 22004KT 10/07 A2997 RMK A01 T01030071  RH  080%=      5-min Rain = 0
KMC1 181309Z 23004KT 10/07 A2997 RMK A01 T01030071  RH  080%=      5-min Rain = 0
KMC1 181310Z 23004KT 10/07 A2997 RMK A01 T01030071  RH  081%=      5-min Rain = 0
KMC1 181311Z 23004KT 10/07 A2997 RMK A01 T01030071  RH  081%=      5-min Rain = 0
KMC1 181312Z 23003KT 10/07 A2997 RMK A01 T01030071  RH  081%=      5-min Rain = 0
KMC1 181313Z 22003KT 10/07 A2997 RMK A01 T01020070  RH  081%=      5-min Rain = 0
KMC1 181314Z 23004KT 10/07 A2997 RMK A01 T01010070  RH  081%=      5-min Rain = 0
KMC1 181315Z 22003KT 10/07 A2997 RMK A01 T01010070  RH  081%=      5-min Rain = 0
KMC1 181316Z 22004KT 10/07 A2997 RMK A01 T01010070  RH  081%=      5-min Rain = 0
KMC1 181317Z 22004KT 10/07 A2997 RMK A01 T01000070  RH  082%=      5-min Rain = 0
KMC1 181318Z 21004KT 10/07 A2997 RMK A01 T00990070  RH  082%=      5-min Rain = 0
KMC1 181319Z 21004KT 10/07 A2997 RMK A01 T01000070  RH  082%=      5-min Rain = 0
KMC1 181320Z 21004KT 10/07 A2997 RMK A01 T01000070  RH  082%=      5-min Rain = 0
KMC1 181321Z 21004KT 10/07 A2997 RMK A01 T01000070  RH  082%=      5-min Rain = 0
KMC1 181322Z 21004KT 10/07 A2997 RMK A01 T01000071  RH  082%=      5-min Rain = 0
KMC1 181323Z 21004KT 10/07 A2997 RMK A01 T01000070  RH  082%=      5-min Rain = 0
KMC1 181324Z 20004KT 10/07 A2997 RMK A01 T01000070  RH  082%=      5-min Rain = 0
KMC1 181325Z 20004KT 10/07 A2997 RMK A01 T01000070  RH  082%=      5-min Rain = 0
KMC1 181326Z 20004KT 10/07 A2997 RMK A01 T01000070  RH  082%=      5-min Rain = 0
KMC1 181327Z 20004KT 10/07 A2997 RMK A01 T01000070  RH  082%=      5-min Rain = 0
KMC1 181328Z 20004KT 10/07 A2997 RMK A01 T01000070  RH  082%=      5-min Rain = 0
KMC1 181329Z 20004KT 10/07 A2997 RMK A01 T01000070  RH  082%=      5-min Rain = 0
KMC1 181330Z 21004KT 10/07 A2997 RMK A01 T01000071  RH  082%=      5-min Rain = 0
KMC1 181331Z 21004KT 10/07 A2997 RMK A01 T01000070  RH  082%=      5-min Rain = 0
KMC1 181332Z 21004KT 10/07 A2997 RMK A01 T00990070  RH  082%=      5-min Rain = 0
KMC1 181333Z 20005KT 10/07 A2997 RMK A01 T00990070  RH  082%=      5-min Rain = 0
KMC1 181334Z 20004KT 10/07 A2997 RMK A01 T01000071  RH  082%=      5-min Rain = 0
KMC1 181335Z 21005KT 10/07 A2997 RMK A01 T00990070  RH  082%=      5-min Rain = 0
KMC1 181336Z 20004KT 10/07 A2997 RMK A01 T01000070  RH  082%=      5-min Rain = 0
KMC1 181337Z 20004KT 10/07 A2997 RMK A01 T00990070  RH  082%=      5-min Rain = 0
KMC1 181338Z 21005KT 10/07 A2997 RMK A01 T00990070  RH  082%=      5-min Rain = 0
KMC1 181339Z 21004KT 10/07 A2997 RMK A01 T00990070  RH  082%=      5-min Rain = 0
KMC1 181340Z 21004KT 10/07 A2997 RMK A01 T00990070  RH  082%=      5-min Rain = 0
KMC1 181341Z 21005KT 10/07 A2997 RMK A01 T00990070  RH  082%=      5-min Rain = 0
KMC1 181342Z 21004KT 10/07 A2997 RMK A01 T00990070  RH  082%=      5-min Rain = 0
KMC1 181343Z 22003KT 10/07 A2997 RMK A01 T00990070  RH  082%=      5-min Rain = 0
KMC1 181344Z 23003KT 10/07 A2997 RMK A01 T00990070  RH  082%=      5-min Rain = 0
KMC1 181345Z 23003KT 10/07 A2997 RMK A01 T00990070  RH  082%=      5-min Rain = 0
KMC1 181346Z 23003KT 10/07 A2997 RMK A01 T00990070  RH  082%=      5-min Rain = 0
KMC1 181347Z 23002KT 10/07 A2997 RMK A01 T00990070  RH  083%=      5-min Rain = 0
KMC1 181348Z 23003KT 10/07 A2997 RMK A01 T00990070  RH  083%=      5-min Rain = 0
KMC1 181349Z 24003KT 10/07 A2997 RMK A01 T00990071  RH  083%=      5-min Rain = 0
KMC1 181350Z 23003KT 10/07 A2997 RMK A01 T00980071  RH  083%=      5-min Rain = 0
KMC1 181351Z 23003KT 10/07 A2997 RMK A01 T00970070  RH  083%=      5-min Rain = 0
KMC1 181352Z 23004KT 10/07 A2997 RMK A01 T00970070  RH  083%=      5-min Rain = 0
KMC1 181353Z 23003KT 10/07 A2997 RMK A01 T00970070  RH  084%=      5-min Rain = 0
KMC1 181354Z 23003KT 10/07 A2997 RMK A01 T00960070  RH  084%=      5-min Rain = 0
KMC1 181355Z 22003KT 10/07 A2997 RMK A01 T00960070  RH  084%=      5-min Rain = 0
KMC1 181356Z 22003KT 10/07 A2997 RMK A01 T00950070  RH  084%=      5-min Rain = 0
KMC1 181357Z 22004KT 10/07 A2997 RMK A01 T00950070  RH  084%=      5-min Rain = 0
KMC1 181358Z 22004KT 10/07 A2997 RMK A01 T00950070  RH  085%=      5-min Rain = 0
KMC1 181359Z 22003KT 10/07 A2997 RMK A01 T00950070  RH  085%=      5-min Rain = 0
KMC1 181400Z 21003KT 10/07 A2997 RMK A01 T00950070  RH  085%=      5-min Rain = 0
KMC1 181401Z 21003KT 10/07 A2997 RMK A01 T00950070  RH  085%=      5-min Rain = 0
KMC1 181402Z 22003KT 10/07 A2997 RMK A01 T00950070  RH  084%=      5-min Rain = 0
KMC1 181403Z 22004KT 10/07 A2997 RMK A01 T00950070  RH  084%=      5-min Rain = 0
KMC1 181404Z 22004KT 10/07 A2997 RMK A01 T00950070  RH  084%=      5-min Rain = 0
KMC1 181405Z 21004KT 10/07 A2997 RMK A01 T00950070  RH  085%=      5-min Rain = 0
KMC1 181406Z 21004KT 10/07 A2997 RMK A01 T00950070  RH  085%=      5-min Rain = 0
KMC1 181407Z 20004KT 10/07 A2997 RMK A01 T00960071  RH  084%=      5-min Rain = 0
KMC1 181408Z 20004KT 10/07 A2997 RMK A01 T00950070  RH  084%=      5-min Rain = 0
KMC1 181409Z 20004KT 10/07 A2997 RMK A01 T00950070  RH  084%=      5-min Rain = 0
KMC1 181410Z 20005KT 10/07 A2997 RMK A01 T00950070  RH  085%=      5-min Rain = 0
KMC1 181411Z 20005KT 10/07 A2997 RMK A01 T00950070  RH  085%=      5-min Rain = 0
KMC1 181412Z 19004KT 10/07 A2997 RMK A01 T00950071  RH  085%=      5-min Rain = 0
KMC1 181413Z 20004KT 10/07 A2997 RMK A01 T00950071  RH  085%=      5-min Rain = 0
KMC1 181414Z 20004KT 10/07 A2997 RMK A01 T00950071  RH  085%=      5-min Rain = 0
KMC1 181415Z 20004KT 10/07 A2997 RMK A01 T00950071  RH  085%=      5-min Rain = 0
KMC1 181416Z 20004KT 10/07 A2997 RMK A01 T00960071  RH  084%=      5-min Rain = 0
KMC1 181417Z 20004KT 10/07 A2997 RMK A01 T00970071  RH  084%=      5-min Rain = 0
KMC1 181418Z 19004KT 10/07 A2997 RMK A01 T00970071  RH  084%=      5-min Rain = 0
KMC1 181419Z 19003KT 10/07 A2997 RMK A01 T00970072  RH  084%=      5-min Rain = 0
KMC1 181420Z 19004KT 10/07 A2997 RMK A01 T00970071  RH  084%=      5-min Rain = 0
KMC1 181421Z 19004KT 10/07 A2997 RMK A01 T00980072  RH  084%=      5-min Rain = 0
KMC1 181422Z 20004KT 10/07 A2997 RMK A01 T00980071  RH  084%=      5-min Rain = 0
KMC1 181423Z 19004KT 10/07 A2997 RMK A01 T00980072  RH  084%=      5-min Rain = 0
KMC1 181424Z 19004KT 10/07 A2997 RMK A01 T00990072  RH  084%=      5-min Rain = 0
KMC1 181425Z 19003KT 10/07 A2996 RMK A01 T00990072  RH  083%=      5-min Rain = 0
KMC1 181426Z 20004KT 10/07 A2996 RMK A01 T00990072  RH  083%=      5-min Rain = 0
KMC1 181427Z 20004KT 10/07 A2996 RMK A01 T01000072  RH  083%=      5-min Rain = 0
KMC1 181428Z 20004KT 10/07 A2996 RMK A01 T01000073  RH  083%=      5-min Rain = 0
KMC1 181429Z 19005KT 10/07 A2996 RMK A01 T01000073  RH  083%=      5-min Rain = 0
KMC1 181430Z 19004KT 10/07 A2996 RMK A01 T01010073  RH  083%=      5-min Rain = 0
KMC1 181431Z 19005KT 10/07 A2996 RMK A01 T01010073  RH  083%=      5-min Rain = 0
KMC1 181432Z 19005KT 10/07 A2996 RMK A01 T01020074  RH  083%=      5-min Rain = 0
KMC1 181433Z 19005KT 10/07 A2996 RMK A01 T01030074  RH  082%=      5-min Rain = 0
KMC1 181434Z 19005KT 10/07 A2996 RMK A01 T01040074  RH  082%=      5-min Rain = 0
KMC1 181435Z 19006KT 11/07 A2996 RMK A01 T01050074  RH  081%=      5-min Rain = 0
KMC1 181436Z 19006KT 11/08 A2996 RMK A01 T01060075  RH  081%=      5-min Rain = 0
KMC1 181437Z 19005KT 11/08 A2996 RMK A01 T01060075  RH  081%=      5-min Rain = 0
KMC1 181438Z 19006KT 11/08 A2996 RMK A01 T01070075  RH  081%=      5-min Rain = 0
KMC1 181439Z 19005KT 11/08 A2996 RMK A01 T01080075  RH  080%=      5-min Rain = 0
KMC1 181440Z 19006KT 11/08 A2996 RMK A01 T01090075  RH  080%=      5-min Rain = 0
KMC1 181441Z 19006KT 11/08 A2996 RMK A01 T01090076  RH  080%=      5-min Rain = 0
KMC1 181442Z 20006KT 11/08 A2997 RMK A01 T01100075  RH  079%=      5-min Rain = 0
KMC1 181443Z 20006KT 11/08 A2997 RMK A01 T01110076  RH  079%=      5-min Rain = 0
KMC1 181444Z 19006KT 11/08 A2997 RMK A01 T01120076  RH  079%=      5-min Rain = 0
KMC1 181445Z 20006KT 11/08 A2997 RMK A01 T01120076  RH  078%=      5-min Rain = 0
KMC1 181446Z 20006KT 11/08 A2997 RMK A01 T01130077  RH  078%=      5-min Rain = 0
KMC1 181447Z 21007KT 11/08 A2997 RMK A01 T01130077  RH  078%=      5-min Rain = 0
KMC1 181448Z 20006KT 11/08 A2997 RMK A01 T01140077  RH  078%=      5-min Rain = 0
KMC1 181449Z 20006KT 11/08 A2997 RMK A01 T01140077  RH  078%=      5-min Rain = 0
KMC1 181450Z 20006KT 12/08 A2997 RMK A01 T01150077  RH  078%=      5-min Rain = 0
KMC1 181451Z 20006KT 12/08 A2997 RMK A01 T01150077  RH  077%=      5-min Rain = 0
KMC1 181452Z 20006KT 12/08 A2996 RMK A01 T01160077  RH  077%=      5-min Rain = 0
KMC1 181453Z 20005KT 12/08 A2996 RMK A01 T01160077  RH  077%=      5-min Rain = 0
KMC1 181454Z 20006KT 12/08 A2997 RMK A01 T01170078  RH  077%=      5-min Rain = 0
KMC1 181455Z 20006KT 12/08 A2997 RMK A01 T01170077  RH  077%=      5-min Rain = 0
KMC1 181456Z 21006KT 12/08 A2997 RMK A01 T01180078  RH  076%=      5-min Rain = 0
KMC1 181457Z 20005KT 12/08 A2997 RMK A01 T01190078  RH  076%=      5-min Rain = 0
KMC1 181458Z 20008KT 12/08 A2997 RMK A01 T01190078  RH  076%=      5-min Rain = 0
KMC1 181459Z 21008KT 12/08 A2997 RMK A01 T01200078  RH  076%=      5-min Rain = 0
KMC1 181500Z 20007KT 12/08 A2997 RMK A01 T01200078  RH  075%=      5-min Rain = 0
KMC1 181501Z 21005KT 12/08 A2997 RMK A01 T01210079  RH  075%=      5-min Rain = 0
KMC1 181502Z 21005G10KT 12/08 A2997 RMK A01 T01210080  RH  076%=      5-min Rain = 0
KMC1 181503Z 20006KT 12/08 A2997 RMK A01 T01210079  RH  076%=      5-min Rain = 0
KMC1 181504Z 20006KT 12/08 A2997 RMK A01 T01210079  RH  075%=      5-min Rain = 0
KMC1 181505Z 20006KT 12/08 A2997 RMK A01 T01220079  RH  075%=      5-min Rain = 0
KMC1 181506Z 20006KT 12/08 A2997 RMK A01 T01220080  RH  075%=      5-min Rain = 0
KMC1 181507Z 20006KT 12/08 A2997 RMK A01 T01230080  RH  075%=      5-min Rain = 0
KMC1 181508Z 19006KT 12/08 A2997 RMK A01 T01230080  RH  075%=      5-min Rain = 0
KMC1 181509Z 19007KT 12/08 A2997 RMK A01 T01230081  RH  075%=      5-min Rain = 0
KMC1 181510Z 20005KT 12/08 A2996 RMK A01 T01240081  RH  075%=      5-min Rain = 0
KMC1 181511Z 19005KT 12/08 A2996 RMK A01 T01240081  RH  075%=      5-min Rain = 0
KMC1 181512Z 20004KT 13/08 A2996 RMK A01 T01250081  RH  075%=      5-min Rain = 0
KMC1 181513Z 19005KT 13/08 A2996 RMK A01 T01250082  RH  075%=      5-min Rain = 0
KMC1 181514Z 20005KT 13/08 A2996 RMK A01 T01260082  RH  075%=      5-min Rain = 0
KMC1 181515Z 20005KT 13/08 A2996 RMK A01 T01260082  RH  074%=      5-min Rain = 0
KMC1 181516Z 20005KT 13/08 A2996 RMK A01 T01270082  RH  074%=      5-min Rain = 0
KMC1 181517Z 20006KT 13/08 A2996 RMK A01 T01270082  RH  074%=      5-min Rain = 0
KMC1 181518Z 19007KT 13/08 A2996 RMK A01 T01280082  RH  074%=      5-min Rain = 0
KMC1 181519Z 20006KT 13/08 A2996 RMK A01 T01280082  RH  073%=      5-min Rain = 0
KMC1 181520Z 20007KT 13/08 A2996 RMK A01 T01290082  RH  073%=      5-min Rain = 0
KMC1 181521Z 20006KT 13/08 A2996 RMK A01 T01290082  RH  073%=      5-min Rain = 0
KMC1 181522Z 20007KT 13/08 A2996 RMK A01 T01300082  RH  073%=      5-min Rain = 0
KMC1 181523Z 20006KT 13/08 A2996 RMK A01 T01310083  RH  073%=      5-min Rain = 0
KMC1 181524Z 19006KT 13/08 A2996 RMK A01 T01310082  RH  072%=      5-min Rain = 0
KMC1 181525Z 19006KT 13/08 A2996 RMK A01 T01310082  RH  072%=      5-min Rain = 0
KMC1 181526Z 20006KT 13/08 A2996 RMK A01 T01320082  RH  072%=      5-min Rain = 0
KMC1 181527Z 20007KT 13/08 A2996 RMK A01 T01320082  RH  071%=      5-min Rain = 0
KMC1 181528Z 20006KT 13/08 A2996 RMK A01 T01330082  RH  071%=      5-min Rain = 0
KMC1 181529Z 20006KT 13/08 A2996 RMK A01 T01340082  RH  071%=      5-min Rain = 0
KMC1 181530Z 19009KT 13/08 A2996 RMK A01 T01340081  RH  070%=      5-min Rain = 0
KMC1 181531Z 20008KT 13/08 A2996 RMK A01 T01340081  RH  070%=      5-min Rain = 0
KMC1 181532Z 19007KT 14/08 A2995 RMK A01 T01350081  RH  070%=      5-min Rain = 0
KMC1 181533Z 19008KT 14/08 A2995 RMK A01 T01350082  RH  070%=      5-min Rain = 0
KMC1 181534Z 20006KT 14/08 A2995 RMK A01 T01360082  RH  070%=      5-min Rain = 0
KMC1 181535Z 19007KT 14/08 A2995 RMK A01 T01360082  RH  069%=      5-min Rain = 0
KMC1 181536Z 19008G13KT 14/08 A2995 RMK A01 T01370082  RH  069%=      5-min Rain = 0
KMC1 181537Z 19009G14KT 14/08 A2995 RMK A01 T01370081  RH  069%=      5-min Rain = 0
KMC1 181538Z 19008KT 14/08 A2995 RMK A01 T01380081  RH  068%=      5-min Rain = 0
KMC1 181539Z 18007KT 14/08 A2995 RMK A01 T01390081  RH  068%=      5-min Rain = 0
KMC1 181540Z 19006KT 14/08 A2995 RMK A01 T01390082  RH  068%=      5-min Rain = 0
KMC1 181541Z 20008KT 14/08 A2995 RMK A01 T01400082  RH  068%=      5-min Rain = 0
KMC1 181542Z 20008KT 14/08 A2995 RMK A01 T01410081  RH  068%=      5-min Rain = 0
KMC1 181543Z 19009KT 14/08 A2995 RMK A01 T01410081  RH  067%=      5-min Rain = 0
KMC1 181544Z 19009KT 14/08 A2995 RMK A01 T01420082  RH  067%=      5-min Rain = 0
KMC1 181545Z 20011G16KT 14/08 A2995 RMK A01 T01430082  RH  067%=      5-min Rain = 0
KMC1 181546Z 20012KT 14/08 A2995 RMK A01 T01430081  RH  066%=      5-min Rain = 0
KMC1 181547Z 19010KT 14/08 A2995 RMK A01 T01430081  RH  066%=      5-min Rain = 0
KMC1 181548Z 19010KT 14/08 A2995 RMK A01 T01440082  RH  067%=      5-min Rain = 0
KMC1 181549Z 19009KT 14/08 A2995 RMK A01 T01440083  RH  067%=      5-min Rain = 0
KMC1 181550Z 20008KT 15/08 A2996 RMK A01 T01450084  RH  067%=      5-min Rain = 0
KMC1 181551Z 19008KT 15/08 A2996 RMK A01 T01450084  RH  067%=      5-min Rain = 0
KMC1 181552Z 20012KT 15/08 A2996 RMK A01 T01460084  RH  066%=      5-min Rain = 0
KMC1 181553Z 20008KT 15/08 A2996 RMK A01 T01460084  RH  066%=      5-min Rain = 0
KMC1 181554Z 20010KT 15/09 A2996 RMK A01 T01470085  RH  067%=      5-min Rain = 0
KMC1 181555Z 20010G15KT 15/09 A2996 RMK A01 T01470085  RH  066%=      5-min Rain = 0
KMC1 181556Z 20011KT 15/09 A2996 RMK A01 T01480085  RH  066%=      5-min Rain = 0
KMC1 181557Z 20007G12KT 15/09 A2996 RMK A01 T01490085  RH  066%=      5-min Rain = 0
KMC1 181558Z 20009KT 15/09 A2996 RMK A01 T01490087  RH  066%=      5-min Rain = 0
KMC1 181559Z 19010KT 15/09 A2996 RMK A01 T01500086  RH  066%=      5-min Rain = 0
KMC1 181600Z 19010KT 15/09 A2996 RMK A01 T01500086  RH  066%=      5-min Rain = 0
KMC1 181601Z 20014KT 15/09 A2996 RMK A01 T01500086  RH  065%=      5-min Rain = 0
KMC1 181602Z 19011KT 15/09 A2996 RMK A01 T01510086  RH  065%=      5-min Rain = 0
KMC1 181603Z 20008G14KT 15/09 A2996 RMK A01 T01510087  RH  065%=      5-min Rain = 0
KMC1 181604Z 20011KT 15/09 A2996 RMK A01 T01520087  RH  065%=      5-min Rain = 0
KMC1 181605Z 20010KT 15/09 A2996 RMK A01 T01520087  RH  065%=      5-min Rain = 0
KMC1 181606Z 20009KT 15/09 A2996 RMK A01 T01520088  RH  065%=      5-min Rain = 0
KMC1 181607Z 20008KT 15/09 A2996 RMK A01 T01530088  RH  065%=      5-min Rain = 0
KMC1 181608Z 21007KT 15/09 A2996 RMK A01 T01540090  RH  066%=      5-min Rain = 0
KMC1 181609Z 20011KT 16/09 A2996 RMK A01 T01550089  RH  065%=      5-min Rain = 0
KMC1 181610Z 21009KT 16/09 A2996 RMK A01 T01550088  RH  064%=      5-min Rain = 0
KMC1 181611Z 20010KT 16/09 A2996 RMK A01 T01550088  RH  064%=      5-min Rain = 0
KMC1 181612Z 20010KT 16/09 A2996 RMK A01 T01560088  RH  064%=      5-min Rain = 0
KMC1 181613Z 21008KT 16/09 A2996 RMK A01 T01550089  RH  065%=      5-min Rain = 0
KMC1 181614Z 21009KT 16/09 A2996 RMK A01 T01560089  RH  064%=      5-min Rain = 0
KMC1 181615Z 21012KT 16/09 A2996 RMK A01 T01570090  RH  064%=      5-min Rain = 0
KMC1 181616Z 21011G16KT 16/09 A2996 RMK A01 T01560088  RH  064%=      5-min Rain = 0
KMC1 181617Z 21012KT 16/09 A2997 RMK A01 T01560088  RH  064%=      5-min Rain = 0
KMC1 181618Z 21010KT 16/09 A2997 RMK A01 T01560089  RH  064%=      5-min Rain = 0
KMC1 181619Z 22009KT 16/09 A2997 RMK A01 T01560089  RH  064%=      5-min Rain = 0
KMC1 181620Z 21009KT 16/09 A2997 RMK A01 T01570090  RH  064%=      5-min Rain = 0
KMC1 181621Z 20009G14KT 16/09 A2997 RMK A01 T01570089  RH  064%=      5-min Rain = 0
KMC1 181622Z 21012G17KT 16/09 A2997 RMK A01 T01570090  RH  064%=      5-min Rain = 0
KMC1 181623Z 21012G17KT 16/09 A2997 RMK A01 T01580089  RH  063%=      5-min Rain = 0
KMC1 181624Z 21007KT 16/09 A2997 RMK A01 T01580090  RH  064%=      5-min Rain = 0
KMC1 181625Z 21008KT 16/09 A2997 RMK A01 T01590092  RH  064%=      5-min Rain = 0
KMC1 181626Z 22009KT 16/09 A2997 RMK A01 T01610091  RH  063%=      5-min Rain = 0
KMC1 181627Z 22008KT 16/09 A2997 RMK A01 T01610091  RH  063%=      5-min Rain = 0
KMC1 181628Z 22009KT 16/09 A2997 RMK A01 T01610090  RH  063%=      5-min Rain = 0
KMC1 181629Z 21009G14KT 16/09 A2997 RMK A01 T01620091  RH  063%=      5-min Rain = 0
KMC1 181630Z 21012KT 16/09 A2997 RMK A01 T01620090  RH  062%=      5-min Rain = 0
KMC1 181631Z 21011KT 16/09 A2996 RMK A01 T01620088  RH  062%=      5-min Rain = 0
KMC1 181632Z 21008KT 16/09 A2996 RMK A01 T01620090  RH  062%=      5-min Rain = 0
KMC1 181633Z 21008KT 16/09 A2996 RMK A01 T01630091  RH  063%=      5-min Rain = 0
KMC1 181634Z 21006KT 16/09 A2996 RMK A01 T01640091  RH  062%=      5-min Rain = 0
KMC1 181635Z 20009KT 16/09 A2996 RMK A01 T01640092  RH  062%=      5-min Rain = 0
KMC1 181636Z 21007KT 17/09 A2996 RMK A01 T01650091  RH  062%=      5-min Rain = 0
KMC1 181637Z 20009KT 17/09 A2996 RMK A01 T01660092  RH  061%=      5-min Rain = 0
KMC1 181638Z 20007KT 17/09 A2996 RMK A01 T01670092  RH  061%=      5-min Rain = 0
KMC1 181639Z 20011KT 17/09 A2996 RMK A01 T01680091  RH  060%=      5-min Rain = 0
KMC1 181640Z 20012KT 17/09 A2996 RMK A01 T01690089  RH  059%=      5-min Rain = 0
KMC1 181641Z 20009G15KT 17/09 A2996 RMK A01 T01680090  RH  060%=      5-min Rain = 0
KMC1 181642Z 21008KT 17/09 A2996 RMK A01 T01680091  RH  060%=      5-min Rain = 0
KMC1 181643Z 20006KT 17/09 A2996 RMK A01 T01690092  RH  060%=      5-min Rain = 0
KMC1 181644Z 21008KT 17/09 A2996 RMK A01 T01700092  RH  060%=      5-min Rain = 0
KMC1 181645Z 21009KT 17/09 A2996 RMK A01 T01710090  RH  059%=      5-min Rain = 0
KMC1 181646Z 21010G16KT 17/09 A2996 RMK A01 T01710091  RH  059%=      5-min Rain = 0
KMC1 181647Z 21008G13KT 17/09 A2996 RMK A01 T01720090  RH  058%=      5-min Rain = 0
KMC1 181648Z 20011KT 17/09 A2996 RMK A01 T01730091  RH  059%=      5-min Rain = 0
KMC1 181649Z 21013KT 17/09 A2996 RMK A01 T01730090  RH  058%=      5-min Rain = 0
KMC1 181650Z 21010KT 17/09 A2996 RMK A01 T01730090  RH  058%=      5-min Rain = 0
KMC1 181651Z 20007KT 17/09 A2996 RMK A01 T01720091  RH  059%=      5-min Rain = 0
KMC1 181652Z 21006KT 17/09 A2996 RMK A01 T01730093  RH  059%=      5-min Rain = 0
KMC1 181653Z 19009G14KT 17/09 A2996 RMK A01 T01740093  RH  059%=      5-min Rain = 0
KMC1 181654Z 19009KT 18/09 A2996 RMK A01 T01750093  RH  058%=      5-min Rain = 0
KMC1 181655Z 19010KT 18/09 A2996 RMK A01 T01760093  RH  058%=      5-min Rain = 0
KMC1 181656Z 19010KT 18/09 A2996 RMK A01 T01760093  RH  058%=      5-min Rain = 0
KMC1 181657Z 20012KT 18/09 A2996 RMK A01 T01760092  RH  058%=      5-min Rain = 0
KMC1 181658Z 19012G17KT 18/09 A2996 RMK A01 T01760091  RH  058%=      5-min Rain = 0
KMC1 181659Z 20013KT 18/09 A2996 RMK A01 T01750091  RH  058%=      5-min Rain = 0
KMC1 181700Z 20011KT 18/09 A2996 RMK A01 T01750092  RH  058%=      5-min Rain = 0
KMC1 181701Z 20010KT 17/09 A2995 RMK A01 T01740091  RH  058%=      5-min Rain = 0
KMC1 181702Z 20011KT 17/09 A2995 RMK A01 T01740092  RH  058%=      5-min Rain = 0
KMC1 181703Z 20010G16KT 17/09 A2995 RMK A01 T01740092  RH  058%=      5-min Rain = 0
KMC1 181704Z 19012KT 17/09 A2995 RMK A01 T01740093  RH  059%=      5-min Rain = 0
KMC1 181705Z 20010KT 17/09 A2995 RMK A01 T01740092  RH  058%=      5-min Rain = 0
KMC1 181706Z 20011KT 18/09 A2995 RMK A01 T01750092  RH  058%=      5-min Rain = 0
KMC1 181707Z 20009KT 18/09 A2995 RMK A01 T01750093  RH  058%=      5-min Rain = 0
KMC1 181708Z 21008KT 18/09 A2995 RMK A01 T01760094  RH  058%=      5-min Rain = 0
KMC1 181709Z 20009KT 18/09 A2995 RMK A01 T01770094  RH  058%=      5-min Rain = 0
KMC1 181710Z 20009G16KT 18/10 A2995 RMK A01 T01780095  RH  058%=      5-min Rain = 0
KMC1 181711Z 21012KT 18/09 A2995 RMK A01 T01780093  RH  057%=      5-min Rain = 0
KMC1 181712Z 21012KT 18/09 A2995 RMK A01 T01780090  RH  056%=      5-min Rain = 0
KMC1 181713Z 21012KT 18/09 A2995 RMK A01 T01770091  RH  057%=      5-min Rain = 0
KMC1 181714Z 22013KT 18/09 A2995 RMK A01 T01770091  RH  057%=      5-min Rain = 0
KMC1 181715Z 20011G16KT 18/09 A2995 RMK A01 T01760091  RH  058%=      5-min Rain = 0
KMC1 181716Z 20012KT 18/09 A2995 RMK A01 T01760092  RH  058%=      5-min Rain = 0
KMC1 181717Z 22010KT 18/09 A2995 RMK A01 T01760092  RH  058%=      5-min Rain = 0
KMC1 181718Z 21010KT 18/09 A2995 RMK A01 T01760093  RH  058%=      5-min Rain = 0
KMC1 181719Z 21010G15KT 18/09 A2995 RMK A01 T01760093  RH  058%=      5-min Rain = 0
KMC1 181720Z 21011G16KT 18/09 A2996 RMK A01 T01770092  RH  058%=      5-min Rain = 0
KMC1 181721Z 21014G20KT 18/09 A2996 RMK A01 T01770092  RH  058%=      5-min Rain = 0
KMC1 181722Z 21014G20KT 18/09 A2996 RMK A01 T01770091  RH  057%=      5-min Rain = 0
KMC1 181723Z 21013G20KT 18/09 A2995 RMK A01 T01770091  RH  057%=      5-min Rain = 0
KMC1 181724Z 21015KT 18/09 A2995 RMK A01 T01770091  RH  057%=      5-min Rain = 0
KMC1 181725Z 20014G19KT 18/09 A2995 RMK A01 T01770092  RH  057%=      5-min Rain = 0
KMC1 181726Z 20012KT 18/09 A2995 RMK A01 T01770093  RH  058%=      5-min Rain = 0
KMC1 181727Z 20011KT 18/09 A2995 RMK A01 T01770093  RH  058%=      5-min Rain = 0
KMC1 181728Z 20012G17KT 18/09 A2995 RMK A01 T01770093  RH  058%=      5-min Rain = 0
KMC1 181729Z 20014KT 18/09 A2995 RMK A01 T01770092  RH  057%=      5-min Rain = 0
KMC1 181730Z 20010KT 18/09 A2995 RMK A01 T01770094  RH  058%=      5-min Rain = 0
KMC1 181731Z 19007KT 18/10 A2995 RMK A01 T01780095  RH  058%=      5-min Rain = 0
KMC1 181732Z 19011KT 18/10 A2995 RMK A01 T01790096  RH  058%=      5-min Rain = 0
KMC1 181733Z 19009KT 18/10 A2995 RMK A01 T01800096  RH  058%=      5-min Rain = 0
KMC1 181734Z 19010G16KT 18/10 A2994 RMK A01 T01800096  RH  058%=      5-min Rain = 0
KMC1 181735Z 20010KT 18/10 A2994 RMK A01 T01800095  RH  058%=      5-min Rain = 0
KMC1 181736Z 21011KT 18/10 A2994 RMK A01 T01800095  RH  058%=      5-min Rain = 0
KMC1 181737Z 20009KT 18/10 A2994 RMK A01 T01800095  RH  058%=      5-min Rain = 0
KMC1 181738Z 19010KT 18/10 A2994 RMK A01 T01800096  RH  058%=      5-min Rain = 0
KMC1 181739Z 20010G16KT 18/10 A2994 RMK A01 T01810096  RH  058%=      5-min Rain = 0
KMC1 181740Z 20011KT 18/10 A2994 RMK A01 T01810096  RH  058%=      5-min Rain = 0
KMC1 181741Z 19012G19KT 18/10 A2994 RMK A01 T01810096  RH  057%=      5-min Rain = 0
KMC1 181742Z 19012G18KT 18/10 A2994 RMK A01 T01810096  RH  058%=      5-min Rain = 0
KMC1 181743Z 19014KT 18/10 A2994 RMK A01 T01810095  RH  057%=      5-min Rain = 0
KMC1 181744Z 19012G19KT 18/10 A2994 RMK A01 T01810096  RH  057%=      5-min Rain = 0
KMC1 181745Z 20010KT 18/10 A2994 RMK A01 T01810096  RH  058%=      5-min Rain = 0
KMC1 181746Z 19009KT 18/10 A2994 RMK A01 T01810097  RH  058%=      5-min Rain = 0
KMC1 181747Z 19011G16KT 18/10 A2994 RMK A01 T01820097  RH  058%=      5-min Rain = 0
KMC1 181748Z 19013G18KT 18/10 A2993 RMK A01 T01820097  RH  058%=      5-min Rain = 0
KMC1 181749Z 19013KT 18/10 A2993 RMK A01 T01820096  RH  057%=      5-min Rain = 0
KMC1 181750Z 19012G17KT 18/10 A2993 RMK A01 T01820097  RH  058%=      5-min Rain = 0
KMC1 181751Z 20012G17KT 18/10 A2993 RMK A01 T01830097  RH  057%=      5-min Rain = 0
KMC1 181752Z 20010KT 18/10 A2993 RMK A01 T01830098  RH  057%=      5-min Rain = 0
KMC1 181753Z 20012G19KT 18/10 A2993 RMK A01 T01830097  RH  057%=      5-min Rain = 0
KMC1 181754Z 20013KT 18/10 A2994 RMK A01 T01830096  RH  057%=      5-min Rain = 0
KMC1 181755Z 20012KT 18/10 A2994 RMK A01 T01830097  RH  057%=      5-min Rain = 0
KMC1 181756Z 20011KT 18/10 A2994 RMK A01 T01830098  RH  058%=      5-min Rain = 0
KMC1 181757Z 19010KT 18/10 A2993 RMK A01 T01830098  RH  057%=      5-min Rain = 0
KMC1 181758Z 20011G16KT 19/10 A2993 RMK A01 T01850098  RH  057%=      5-min Rain = 0
KMC1 181759Z 20008KT 19/10 A2993 RMK A01 T01850099  RH  057%=      5-min Rain = 0
KMC1 181800Z 20011G17KT 19/10 A2993 RMK A01 T01860098  RH  056%=      5-min Rain = 0
KMC1 181801Z 20011G16KT 19/10 A2993 RMK A01 T01870098  RH  056%=      5-min Rain = 0
KMC1 181802Z 20009KT 19/10 A2993 RMK A01 T01860099  RH  057%=      5-min Rain = 0
KMC1 181803Z 20014KT 19/10 A2993 RMK A01 T01870098  RH  056%=      5-min Rain = 0
KMC1 181804Z 20011G18KT 19/10 A2993 RMK A01 T01870098  RH  056%=      5-min Rain = 0
KMC1 181805Z 21011G16KT 19/10 A2992 RMK A01 T01870099  RH  057%=      5-min Rain = 0
KMC1 181806Z 21009KT 19/10 A2992 RMK A01 T01880099  RH  056%=      5-min Rain = 0
KMC1 181807Z 20012G19KT 19/10 A2992 RMK A01 T01880099  RH  056%=      5-min Rain = 0
KMC1 181808Z 20011G17KT 19/10 A2992 RMK A01 T01890099  RH  056%=      5-min Rain = 0
KMC1 181809Z 19012KT 19/10 A2992 RMK A01 T01880098  RH  056%=      5-min Rain = 0
KMC1 181810Z 20012KT 19/10 A2992 RMK A01 T01880099  RH  056%=      5-min Rain = 0
KMC1 181811Z 20011KT 19/10 A2992 RMK A01 T01880099  RH  056%=      5-min Rain = 0
KMC1 181812Z 20009G15KT 19/10 A2992 RMK A01 T01880099  RH  056%=      5-min Rain = 0
KMC1 181813Z 21011G16KT 19/10 A2992 RMK A01 T01880100  RH  057%=      5-min Rain = 0
KMC1 181814Z 20008KT 19/10 A2992 RMK A01 T01880100  RH  056%=      5-min Rain = 0
KMC1 181815Z 19013KT 19/10 A2992 RMK A01 T01880100  RH  056%=      5-min Rain = 0
KMC1 181816Z 20009KT 19/10 A2992 RMK A01 T01880099  RH  056%=      5-min Rain = 0
KMC1 181817Z 19009G14KT 19/10 A2992 RMK A01 T01870100  RH  057%=      5-min Rain = 0
KMC1 181818Z 19011KT 19/10 A2992 RMK A01 T01870100  RH  057%=      5-min Rain = 0
KMC1 181819Z 20012KT 19/10 A2992 RMK A01 T01870099  RH  057%=      5-min Rain = 0
KMC1 181820Z 19009KT 19/10 A2992 RMK A01 T01870099  RH  057%=      5-min Rain = 0
KMC1 181821Z 21008KT 19/10 A2992 RMK A01 T01860101  RH  058%=      5-min Rain = 0
KMC1 181822Z 20008KT 19/10 A2992 RMK A01 T01870101  RH  057%=      5-min Rain = 0
KMC1 181823Z 21006KT 19/10 A2992 RMK A01 T01890102  RH  057%=      5-min Rain = 0
KMC1 181824Z 21008G13KT 19/10 A2992 RMK A01 T01890103  RH  057%=      5-min Rain = 0
KMC1 181825Z 20008G13KT 19/10 A2992 RMK A01 T01900102  RH  057%=      5-min Rain = 0
KMC1 181826Z 20009KT 19/10 A2992 RMK A01 T01900103  RH  057%=      5-min Rain = 0
KMC1 181827Z 19009KT 19/10 A2992 RMK A01 T01900102  RH  057%=      5-min Rain = 0
KMC1 181828Z 20007KT 19/10 A2992 RMK A01 T01910104  RH  057%=      5-min Rain = 0
KMC1 181829Z 19007KT 19/11 A2992 RMK A01 T01920105  RH  057%=      5-min Rain = 0
KMC1 181830Z 20011KT 19/10 A2991 RMK A01 T01930103  RH  056%=      5-min Rain = 0
KMC1 181831Z 19010KT 19/10 A2991 RMK A01 T01940103  RH  056%=      5-min Rain = 0
KMC1 181832Z 20010G15KT 19/10 A2991 RMK A01 T01930103  RH  056%=      5-min Rain = 0
KMC1 181833Z 20008KT 19/10 A2991 RMK A01 T01930103  RH  056%=      5-min Rain = 0
KMC1 181834Z 19007KT 19/10 A2991 RMK A01 T01930104  RH  056%=      5-min Rain = 0
KMC1 181835Z 19006KT 20/11 A2991 RMK A01 T01950105  RH  056%=      5-min Rain = 0
KMC1 181836Z 20010G15KT 20/11 A2991 RMK A01 T01970106  RH  056%=      5-min Rain = 0
KMC1 181837Z 20013KT 20/10 A2991 RMK A01 T01970103  RH  054%=      5-min Rain = 0
KMC1 181838Z 21011KT 20/10 A2991 RMK A01 T01970103  RH  055%=      5-min Rain = 0
KMC1 181839Z 20008KT 20/10 A2991 RMK A01 T01970103  RH  055%=      5-min Rain = 0
KMC1 181840Z 21008KT 20/11 A2991 RMK A01 T01970105  RH  055%=      5-min Rain = 0
KMC1 181841Z 21010KT 20/11 A2991 RMK A01 T01990105  RH  055%=      5-min Rain = 0
KMC1 181842Z 22007KT 20/11 A2991 RMK A01 T02000105  RH  054%=      5-min Rain = 0
KMC1 181843Z 21009G19KT 20/11 A299 RMK A01 T02020106  RH  054%=      5-min Rain = 0
KMC1 181844Z 21013KT 20/10 A299 RMK A01 T02030102  RH  052%=      5-min Rain = 0
KMC1 181845Z 22012KT 20/10 A299 RMK A01 T02030101  RH  052%=      5-min Rain = 0
KMC1 181846Z 22014KT 20/10 A299 RMK A01 T02030099  RH  051%=      5-min Rain = 0
KMC1 181847Z 22012KT 20/10 A299 RMK A01 T02020099  RH  052%=      5-min Rain = 0
KMC1 181848Z 21013KT 20/10 A299 RMK A01 T02020098  RH  051%=      5-min Rain = 0
KMC1 181849Z 22011KT 20/10 A299 RMK A01 T02020098  RH  051%=      5-min Rain = 0
KMC1 181850Z 21012G17KT 20/10 A299 RMK A01 T02020099  RH  052%=      5-min Rain = 0
KMC1 181851Z 22015KT 20/10 A299 RMK A01 T02020099  RH  051%=      5-min Rain = 0
KMC1 181852Z 20014KT 20/10 A2989 RMK A01 T02030099  RH  051%=      5-min Rain = 0
KMC1 181853Z 21012KT 20/10 A2989 RMK A01 T02030098  RH  051%=      5-min Rain = 0
KMC1 181854Z 22011G16KT 20/10 A2989 RMK A01 T02030099  RH  051%=      5-min Rain = 0
KMC1 181855Z 23012G17KT 20/10 A2989 RMK A01 T02040099  RH  051%=      5-min Rain = 0
KMC1 181856Z 23008KT 21/10 A2989 RMK A01 T02050102  RH  052%=      5-min Rain = 0
KMC1 181857Z 21011KT 21/10 A2989 RMK A01 T02070103  RH  051%=      5-min Rain = 0
KMC1 181858Z 20012KT 21/10 A2989 RMK A01 T02080102  RH  051%=      5-min Rain = 0
KMC1 181859Z 21010KT 21/10 A2989 RMK A01 T02080102  RH  051%=      5-min Rain = 0
KMC1 181900Z 20009KT 21/10 A2989 RMK A01 T02080103  RH  051%=      5-min Rain = 0
KMC1 181901Z 21008KT 21/10 A2989 RMK A01 T02090104  RH  051%=      5-min Rain = 0
KMC1 181902Z 21011KT 21/10 A2989 RMK A01 T02090104  RH  051%=      5-min Rain = 0
KMC1 181903Z 21012G17KT 21/10 A2989 RMK A01 T02090099  RH  049%=      5-min Rain = 0
KMC1 181904Z 21010KT 21/10 A2989 RMK A01 T02080099  RH  050%=      5-min Rain = 0
KMC1 181905Z 20009KT 21/10 A2988 RMK A01 T02080103  RH  051%=      5-min Rain = 0
KMC1 181906Z 21010G15KT 21/10 A2988 RMK A01 T02080102  RH  051%=      5-min Rain = 0
KMC1 181907Z 20009KT 21/10 A2988 RMK A01 T02080103  RH  051%=      5-min Rain = 0
KMC1 181908Z 21010KT 21/10 A2988 RMK A01 T02090101  RH  050%=      5-min Rain = 0
KMC1 181909Z 20011KT 21/10 A2988 RMK A01 T02100102  RH  050%=      5-min Rain = 0
KMC1 181910Z 20012KT 21/10 A2988 RMK A01 T02100101  RH  050%=      5-min Rain = 0
KMC1 181911Z 21012G17KT 21/10 A2987 RMK A01 T02090102  RH  050%=      5-min Rain = 0
KMC1 181912Z 21009KT 21/10 A2987 RMK A01 T02090102  RH  050%=      5-min Rain = 0
KMC1 181913Z 20009KT 21/10 A2987 RMK A01 T02090103  RH  050%=      5-min Rain = 0
KMC1 181914Z 19010G15KT 21/10 A2987 RMK A01 T02100103  RH  051%=      5-min Rain = 0
KMC1 181915Z 20011G16KT 21/10 A2987 RMK A01 T02100103  RH  050%=      5-min Rain = 0
KMC1 181916Z 20011KT 21/10 A2987 RMK A01 T02100102  RH  050%=      5-min Rain = 0
KMC1 181917Z 20011KT 21/10 A2986 RMK A01 T02100103  RH  050%=      5-min Rain = 0
KMC1 181918Z 20010KT 21/10 A2986 RMK A01 T02090102  RH  050%=      5-min Rain = 0
KMC1 181919Z 20011KT 21/10 A2986 RMK A01 T02090104  RH  051%=      5-min Rain = 0
KMC1 181920Z 19009KT 21/11 A2986 RMK A01 T02100105  RH  051%=      5-min Rain = 0
KMC1 181921Z 18012KT 21/11 A2986 RMK A01 T02110105  RH  051%=      5-min Rain = 0
KMC1 181922Z 19009G14KT 21/10 A2986 RMK A01 T02120104  RH  050%=      5-min Rain = 0
KMC1 181923Z 20010G16KT 21/11 A2986 RMK A01 T02120105  RH  050%=      5-min Rain = 0
KMC1 181924Z 19012KT 21/10 A2985 RMK A01 T02110104  RH  050%=      5-min Rain = 0
KMC1 181925Z 20009G14KT 21/10 A2985 RMK A01 T02100103  RH  050%=      5-min Rain = 0
KMC1 181926Z 20009KT 21/10 A2985 RMK A01 T02090104  RH  051%=      5-min Rain = 0
KMC1 181927Z 21010G18KT 21/11 A2985 RMK A01 T02100105  RH  051%=      5-min Rain = 0
KMC1 181928Z 22011KT 21/10 A2985 RMK A01 T02110101  RH  049%=      5-min Rain = 0
KMC1 181929Z 20015G22KT 21/10 A2985 RMK A01 T02120100  RH  049%=      5-min Rain = 0
KMC1 181930Z 21012G18KT 21/10 A2985 RMK A01 T02110098  RH  048%=      5-min Rain = 0
KMC1 181931Z 23011KT 21/10 A2984 RMK A01 T02100098  RH  048%=      5-min Rain = 0
KMC1 181932Z 21008KT 21/10 A2984 RMK A01 T02100099  RH  049%=      5-min Rain = 0
KMC1 181933Z 20011G17KT 21/10 A2984 RMK A01 T02110100  RH  049%=      5-min Rain = 0
KMC1 181934Z 21010KT 21/10 A2984 RMK A01 T02110100  RH  049%=      5-min Rain = 0
KMC1 181935Z 21011KT 21/10 A2984 RMK A01 T02120102  RH  049%=      5-min Rain = 0
KMC1 181936Z 20013G23KT 21/10 A2984 RMK A01 T02120101  RH  049%=      5-min Rain = 0
KMC1 181937Z 19014KT 21/10 A2983 RMK A01 T02120096  RH  048%=      5-min Rain = 0
KMC1 181938Z 20014KT 21/10 A2983 RMK A01 T02100095  RH  048%=      5-min Rain = 0
KMC1 181939Z 19012G18KT 21/10 A2983 RMK A01 T02080097  RH  049%=      5-min Rain = 0
KMC1 181940Z 18011G17KT 21/10 A2982 RMK A01 T02080099  RH  049%=      5-min Rain = 0
KMC1 181941Z 20013G18KT 21/10 A2982 RMK A01 T02100098  RH  049%=      5-min Rain = 0
KMC1 181942Z 20012G18KT 21/10 A2982 RMK A01 T02110098  RH  048%=      5-min Rain = 0
KMC1 181943Z 20012KT 21/10 A2982 RMK A01 T02100096  RH  048%=      5-min Rain = 0
KMC1 181944Z 20010G16KT 21/10 A2982 RMK A01 T02100099  RH  049%=      5-min Rain = 0
KMC1 181945Z 20011KT 21/10 A2981 RMK A01 T02110100  RH  049%=      5-min Rain = 0
KMC1 181946Z 19012KT 21/10 A2981 RMK A01 T02120101  RH  049%=      5-min Rain = 0
KMC1 181947Z 20012KT 21/10 A2981 RMK A01 T02130101  RH  049%=      5-min Rain = 0
KMC1 181948Z 20015G20KT 21/10 A2981 RMK A01 T02130100  RH  048%=      5-min Rain = 0
KMC1 181949Z 21014KT 21/10 A2981 RMK A01 T02110098  RH  048%=      5-min Rain = 0
KMC1 181950Z 20013KT 21/10 A2981 RMK A01 T02100097  RH  048%=      5-min Rain = 0
KMC1 181951Z 21008KT 21/10 A2981 RMK A01 T02110099  RH  049%=      5-min Rain = 0
KMC1 181952Z 21009KT 21/10 A2981 RMK A01 T02130100  RH  048%=      5-min Rain = 0
KMC1 181953Z 21011KT 21/10 A2981 RMK A01 T02140100  RH  048%=      5-min Rain = 0
KMC1 181954Z 21013G19KT 22/10 A2981 RMK A01 T02150099  RH  048%=      5-min Rain = 0
KMC1 181955Z 20012G20KT 21/10 A2981 RMK A01 T02140097  RH  047%=      5-min Rain = 0
KMC1 181956Z 20009G16KT 21/10 A2981 RMK A01 T02140098  RH  047%=      5-min Rain = 0
KMC1 181957Z 21011KT 22/10 A2981 RMK A01 T02150100  RH  048%=      5-min Rain = 0
KMC1 181958Z 20012KT 22/10 A298 RMK A01 T02170098  RH  047%=      5-min Rain = 0
KMC1 181959Z 19014G20KT 22/10 A298 RMK A01 T02170098  RH  047%=      5-min Rain = 0
KMC1 182000Z 20012G18KT 22/10 A298 RMK A01 T02170098  RH  047%=      5-min Rain = 0
KMC1 182001Z 21014G19KT 22/10 A298 RMK A01 T02160097  RH  047%=      5-min Rain = 0
KMC1 182002Z 21015KT 22/10 A298 RMK A01 T02150097  RH  047%=      5-min Rain = 0
KMC1 182003Z 21013G19KT 21/10 A298 RMK A01 T02140098  RH  048%=      5-min Rain = 0
KMC1 182004Z 20012KT 21/10 A298 RMK A01 T02140100  RH  048%=      5-min Rain = 0
KMC1 182005Z 19010KT 22/10 A298 RMK A01 T02150103  RH  049%=      5-min Rain = 0
KMC1 182006Z 19012KT 22/10 A298 RMK A01 T02170100  RH  047%=      5-min Rain = 0
KMC1 182007Z 20012KT 22/10 A298 RMK A01 T02170100  RH  047%=      5-min Rain = 0
KMC1 182008Z 20011G17KT 22/10 A298 RMK A01 T02170100  RH  047%=      5-min Rain = 0
KMC1 182009Z 19012G17KT 22/10 A298 RMK A01 T02180101  RH  048%=      5-min Rain = 0
KMC1 182010Z 19010G16KT 22/10 A298 RMK A01 T02180101  RH  047%=      5-min Rain = 0
KMC1 182011Z 19013KT 22/10 A298 RMK A01 T02180099  RH  047%=      5-min Rain = 0
KMC1 182012Z 20010KT 22/10 A298 RMK A01 T02180100  RH  047%=      5-min Rain = 0
KMC1 182013Z 21014G20KT 22/10 A298 RMK A01 T02180100  RH  047%=      5-min Rain = 0
KMC1 182014Z 20014G19KT 22/10 A298 RMK A01 T02190098  RH  046%=      5-min Rain = 0
KMC1 182015Z 21015KT 22/10 A298 RMK A01 T02180098  RH  047%=      5-min Rain = 0
KMC1 182016Z 21016KT 22/10 A298 RMK A01 T02170096  RH  046%=      5-min Rain = 0
KMC1 182017Z 21013KT 22/09 A298 RMK A01 T02160094  RH  046%=      5-min Rain = 0
KMC1 182018Z 21011G16KT 22/10 A298 RMK A01 T02160097  RH  047%=      5-min Rain = 0
KMC1 182019Z 20011G18KT 22/10 A298 RMK A01 T02160099  RH  047%=      5-min Rain = 0
KMC1 182020Z 22010KT 22/10 A298 RMK A01 T02170100  RH  047%=      5-min Rain = 0
KMC1 182021Z 21008KT 22/10 A298 RMK A01 T02190103  RH  048%=      5-min Rain = 0
KMC1 182022Z 21009KT 22/10 A298 RMK A01 T02210103  RH  047%=      5-min Rain = 0
KMC1 182023Z 22007G13KT 22/10 A298 RMK A01 T02230102  RH  046%=      5-min Rain = 0
KMC1 182024Z 20012G17KT 22/10 A298 RMK A01 T02240103  RH  046%=      5-min Rain = 0
KMC1 182025Z 20009G18KT 22/10 A298 RMK A01 T02240103  RH  046%=      5-min Rain = 0
KMC1 182026Z 21015KT 22/10 A298 RMK A01 T02230101  RH  046%=      5-min Rain = 0
KMC1 182027Z 22013KT 22/10 A298 RMK A01 T02210100  RH  046%=      5-min Rain = 0
KMC1 182028Z 21014KT 22/10 A298 RMK A01 T02200100  RH  047%=      5-min Rain = 0
KMC1 182029Z 21014KT 22/10 A298 RMK A01 T02180099  RH  047%=      5-min Rain = 0
KMC1 182030Z 21012KT 22/10 A298 RMK A01 T02180101  RH  047%=      5-min Rain = 0
KMC1 182031Z 21010KT 22/10 A298 RMK A01 T02170102  RH  048%=      5-min Rain = 0
KMC1 182032Z 22007KT 22/10 A298 RMK A01 T02190103  RH  048%=      5-min Rain = 0
KMC1 182033Z 22009KT 22/11 A298 RMK A01 T02210105  RH  048%=      5-min Rain = 0
KMC1 182034Z 22011G17KT 22/10 A298 RMK A01 T02240104  RH  046%=      5-min Rain = 0
KMC1 182035Z 21011G16KT 23/10 A298 RMK A01 T02250101  RH  045%=      5-min Rain = 0
KMC1 182036Z 22013KT 23/10 A298 RMK A01 T02250099  RH  045%=      5-min Rain = 0
KMC1 182037Z 22009G14KT 22/10 A298 RMK A01 T02240098  RH  045%=      5-min Rain = 0
KMC1 182038Z 22008KT 22/10 A298 RMK A01 T02240099  RH  045%=      5-min Rain = 0
KMC1 182039Z 22009KT 22/10 A2979 RMK A01 T02240100  RH  045%=      5-min Rain = 0
KMC1 182040Z 22014G19KT 23/10 A298 RMK A01 T02250099  RH  045%=      5-min Rain = 0
KMC1 182041Z 24007KT 23/10 A2979 RMK A01 T02250097  RH  044%=      5-min Rain = 0
KMC1 182042Z 21010G16KT 23/10 A2979 RMK A01 T02250098  RH  044%=      5-min Rain = 0
KMC1 182043Z 21011G18KT 23/10 A2979 RMK A01 T02260098  RH  044%=      5-min Rain = 0
KMC1 182044Z 21008G16KT 23/10 A2979 RMK A01 T02260100  RH  045%=      5-min Rain = 0
KMC1 182045Z 21011KT 23/10 A2979 RMK A01 T02260100  RH  045%=      5-min Rain = 0
KMC1 182046Z 21009KT 23/10 A2979 RMK A01 T02260101  RH  045%=      5-min Rain = 0
KMC1 182047Z 22012KT 23/10 A2979 RMK A01 T02260102  RH  045%=      5-min Rain = 0
KMC1 182048Z 22009G15KT 23/10 A2979 RMK A01 T02260100  RH  045%=      5-min Rain = 0
KMC1 182049Z 22011KT 23/10 A2979 RMK A01 T02260099  RH  044%=      5-min Rain = 0
KMC1 182050Z 22009KT 23/10 A2979 RMK A01 T02260097  RH  044%=      5-min Rain = 0
KMC1 182051Z 21011G19KT 23/10 A2979 RMK A01 T02280097  RH  043%=      5-min Rain = 0
KMC1 182052Z 21012G19KT 23/09 A2979 RMK A01 T02280094  RH  042%=      5-min Rain = 0
KMC1 182053Z 21012KT 23/09 A2979 RMK A01 T02270094  RH  043%=      5-min Rain = 0
KMC1 182054Z 21013KT 23/09 A2979 RMK A01 T02270093  RH  043%=      5-min Rain = 0
KMC1 182055Z 21011KT 23/09 A2979 RMK A01 T02260094  RH  043%=      5-min Rain = 0
KMC1 182056Z 22010KT 23/09 A2979 RMK A01 T02250093  RH  043%=      5-min Rain = 0
KMC1 182057Z 23009G14KT 23/10 A2979 RMK A01 T02260095  RH  043%=      5-min Rain = 0
KMC1 182058Z 23010KT 23/10 A2979 RMK A01 T02270095  RH  043%=      5-min Rain = 0
KMC1 182059Z 22015KT 23/09 A2979 RMK A01 T02280094  RH  042%=      5-min Rain = 0
KMC1 182100Z 21013KT 23/09 A2979 RMK A01 T02280092  RH  042%=      5-min Rain = 0
KMC1 182101Z 22012KT 23/09 A2978 RMK A01 T02260089  RH  042%=      5-min Rain = 0
KMC1 182102Z 20012G18KT 23/09 A2978 RMK A01 T02250090  RH  042%=      5-min Rain = 0
KMC1 182103Z 20014KT 23/09 A2978 RMK A01 T02260087  RH  041%=      5-min Rain = 0
KMC1 182104Z 21011KT 23/09 A2978 RMK A01 T02270088  RH  041%=      5-min Rain = 0
KMC1 182105Z 22012G18KT 23/09 A2978 RMK A01 T02270090  RH  041%=      5-min Rain = 0
KMC1 182106Z 22010KT 23/09 A2978 RMK A01 T02280090  RH  041%=      5-min Rain = 0
KMC1 182107Z 21010KT 23/09 A2978 RMK A01 T02280090  RH  041%=      5-min Rain = 0
KMC1 182108Z 20011KT 23/09 A2978 RMK A01 T02290090  RH  041%=      5-min Rain = 0
KMC1 182109Z 22012G17KT 23/09 A2978 RMK A01 T02280090  RH  041%=      5-min Rain = 0
KMC1 182110Z 21013G18KT 23/09 A2978 RMK A01 T02280090  RH  041%=      5-min Rain = 0
KMC1 182111Z 21011G16KT 23/09 A2978 RMK A01 T02270092  RH  042%=      5-min Rain = 0
KMC1 182112Z 21012KT 23/09 A2978 RMK A01 T02270092  RH  042%=      5-min Rain = 0
KMC1 182113Z 21011G16KT 23/09 A2978 RMK A01 T02260093  RH  043%=      5-min Rain = 0
KMC1 182114Z 22008G14KT 23/10 A2978 RMK A01 T02260095  RH  043%=      5-min Rain = 0
KMC1 182115Z 22010G17KT 23/09 A2977 RMK A01 T02270094  RH  043%=      5-min Rain = 0
KMC1 182116Z 21012G17KT 23/09 A2977 RMK A01 T02290094  RH  042%=      5-min Rain = 0
KMC1 182117Z 20009G15KT 23/09 A2977 RMK A01 T02290092  RH  042%=      5-min Rain = 0
KMC1 182118Z 22011KT 23/09 A2977 RMK A01 T02300094  RH  042%=      5-min Rain = 0
KMC1 182119Z 22011G16KT 23/09 A2977 RMK A01 T02300093  RH  042%=      5-min Rain = 0
KMC1 182120Z 20009G16KT 23/09 A2977 RMK A01 T02300094  RH  042%=      5-min Rain = 0
KMC1 182121Z 19010KT 23/10 A2977 RMK A01 T02300097  RH  043%=      5-min Rain = 0
KMC1 182122Z 19010KT 23/10 A2976 RMK A01 T02300098  RH  043%=      5-min Rain = 0
KMC1 182123Z 20012G19KT 23/10 A2976 RMK A01 T02300097  RH  043%=      5-min Rain = 0
KMC1 182124Z 20012KT 23/09 A2976 RMK A01 T02300094  RH  042%=      5-min Rain = 0
KMC1 182125Z 21009G14KT 23/09 A2976 RMK A01 T02290093  RH  042%=      5-min Rain = 0
KMC1 182126Z 21010KT 23/09 A2976 RMK A01 T02290093  RH  042%=      5-min Rain = 0
KMC1 182127Z 20012KT 23/09 A2976 RMK A01 T02290090  RH  041%=      5-min Rain = 0
KMC1 182128Z 21015G21KT 23/09 A2976 RMK A01 T02290088  RH  041%=      5-min Rain = 0
KMC1 182129Z 22014KT 23/09 A2976 RMK A01 T02280087  RH  041%=      5-min Rain = 0
KMC1 182130Z 22012G17KT 23/09 A2976 RMK A01 T02280087  RH  041%=      5-min Rain = 0
KMC1 182131Z 21007KT 23/09 A2976 RMK A01 T02290089  RH  041%=      5-min Rain = 0
KMC1 182132Z 23012KT 23/09 A2976 RMK A01 T02300089  RH  041%=      5-min Rain = 0
KMC1 182133Z 22013KT 23/09 A2976 RMK A01 T02310088  RH  040%=      5-min Rain = 0
KMC1 182134Z 23012G17KT 23/09 A2976 RMK A01 T02310089  RH  040%=      5-min Rain = 0
KMC1 182135Z 22015KT 23/09 A2976 RMK A01 T02310087  RH  040%=      5-min Rain = 0
KMC1 182136Z 21014KT 23/09 A2976 RMK A01 T02300086  RH  040%=      5-min Rain = 0
KMC1 182137Z 22009G14KT 23/09 A2976 RMK A01 T02290088  RH  041%=      5-min Rain = 0
KMC1 182138Z 19009G17KT 23/09 A2976 RMK A01 T02290091  RH  041%=      5-min Rain = 0
KMC1 182139Z 18014KT 23/09 A2975 RMK A01 T02300090  RH  041%=      5-min Rain = 0
KMC1 182140Z 19015KT 23/09 A2975 RMK A01 T02300091  RH  041%=      5-min Rain = 0
KMC1 182141Z 20010G16KT 23/09 A2975 RMK A01 T02290090  RH  041%=      5-min Rain = 0
KMC1 182142Z 20012KT 23/09 A2975 RMK A01 T02280092  RH  042%=      5-min Rain = 0
KMC1 182143Z 19008KT 23/09 A2975 RMK A01 T02290090  RH  041%=      5-min Rain = 0
KMC1 182144Z 19012G18KT 23/09 A2975 RMK A01 T02290091  RH  041%=      5-min Rain = 0
KMC1 182145Z 20015G20KT 23/09 A2975 RMK A01 T02300089  RH  041%=      5-min Rain = 0
KMC1 182146Z 21013G18KT 23/09 A2975 RMK A01 T02280087  RH  040%=      5-min Rain = 0
KMC1 182147Z 20015G20KT 23/09 A2975 RMK A01 T02280088  RH  041%=      5-min Rain = 0
KMC1 182148Z 20012KT 23/09 A2975 RMK A01 T02270088  RH  041%=      5-min Rain = 0
KMC1 182149Z 20011KT 23/09 A2975 RMK A01 T02270088  RH  041%=      5-min Rain = 0
KMC1 182150Z 19008KT 23/09 A2975 RMK A01 T02280090  RH  041%=      5-min Rain = 0
KMC1 182151Z 20011G16KT 23/09 A2975 RMK A01 T02290090  RH  041%=      5-min Rain = 0
KMC1 182152Z 20012G18KT 23/09 A2975 RMK A01 T02290089  RH  041%=      5-min Rain = 0
KMC1 182153Z 21013KT 23/09 A2975 RMK A01 T02270087  RH  041%=      5-min Rain = 0
KMC1 182154Z 21014G20KT 23/09 A2975 RMK A01 T02260087  RH  041%=      5-min Rain = 0
KMC1 182155Z 22007G13KT 23/09 A2975 RMK A01 T02250089  RH  042%=      5-min Rain = 0
KMC1 182156Z 22008G14KT 23/09 A2975 RMK A01 T02260090  RH  042%=      5-min Rain = 0
KMC1 182157Z 21010KT 23/09 A2975 RMK A01 T02270091  RH  042%=      5-min Rain = 0
KMC1 182158Z 20011G16KT 23/09 A2975 RMK A01 T02280090  RH  041%=      5-min Rain = 0
KMC1 182159Z 20010KT 23/09 A2975 RMK A01 T02280089  RH  041%=      5-min Rain = 0
KMC1 182200Z 21008KT 23/09 A2975 RMK A01 T02280089  RH  041%=      5-min Rain = 0
KMC1 182201Z 20009G14KT 23/09 A2975 RMK A01 T02290091  RH  041%=      5-min Rain = 0
KMC1 182202Z 21008KT 23/09 A2975 RMK A01 T02290089  RH  041%=      5-min Rain = 0
KMC1 182203Z 22011KT 23/09 A2975 RMK A01 T02300089  RH  041%=      5-min Rain = 0
KMC1 182204Z 23012G17KT 23/08 A2975 RMK A01 T02300084  RH  039%=      5-min Rain = 0
KMC1 182205Z 21010G16KT 23/08 A2975 RMK A01 T02290081  RH  039%=      5-min Rain = 0
KMC1 182206Z 21013KT 23/08 A2975 RMK A01 T02280080  RH  039%=      5-min Rain = 0
KMC1 182207Z 20012KT 23/08 A2975 RMK A01 T02280079  RH  038%=      5-min Rain = 0
KMC1 182208Z 21013KT 23/08 A2975 RMK A01 T02270077  RH  038%=      5-min Rain = 0
KMC1 182209Z 21012KT 23/08 A2975 RMK A01 T02260078  RH  039%=      5-min Rain = 0
KMC1 182210Z 22009KT 23/08 A2975 RMK A01 T02260077  RH  039%=      5-min Rain = 0
KMC1 182211Z 22010KT 23/08 A2975 RMK A01 T02260078  RH  039%=      5-min Rain = 0
KMC1 182212Z 23010G15KT 23/08 A2975 RMK A01 T02260077  RH  038%=      5-min Rain = 0
KMC1 182213Z 22010G15KT 23/08 A2975 RMK A01 T02270078  RH  038%=      5-min Rain = 0
KMC1 182214Z 21011KT 23/08 A2975 RMK A01 T02280077  RH  038%=      5-min Rain = 0
KMC1 182215Z 22011KT 23/08 A2975 RMK A01 T02280077  RH  038%=      5-min Rain = 0
KMC1 182216Z 21009KT 23/08 A2975 RMK A01 T02280078  RH  038%=      5-min Rain = 0
KMC1 182217Z 20011KT 23/08 A2975 RMK A01 T02280080  RH  039%=      5-min Rain = 0
KMC1 182218Z 22010G15KT 23/08 A2975 RMK A01 T02290080  RH  038%=      5-min Rain = 0
KMC1 182219Z 21008G13KT 23/08 A2975 RMK A01 T02300083  RH  039%=      5-min Rain = 0
KMC1 182220Z 21010G17KT 23/08 A2975 RMK A01 T02320083  RH  039%=      5-min Rain = 0
KMC1 182221Z 22013KT 23/08 A2975 RMK A01 T02320079  RH  037%=      5-min Rain = 0
KMC1 182222Z 21009KT 23/08 A2975 RMK A01 T02320079  RH  037%=      5-min Rain = 0
KMC1 182223Z 21008KT 23/08 A2975 RMK A01 T02310080  RH  038%=      5-min Rain = 0
KMC1 182224Z 21008KT 23/08 A2975 RMK A01 T02310081  RH  038%=      5-min Rain = 0
KMC1 182225Z 20010KT 23/08 A2975 RMK A01 T02320081  RH  038%=      5-min Rain = 0
KMC1 182226Z 20010KT 23/08 A2975 RMK A01 T02320081  RH  038%=      5-min Rain = 0
KMC1 182227Z 21008KT 23/08 A2975 RMK A01 T02310083  RH  039%=      5-min Rain = 0
KMC1 182228Z 22008KT 23/08 A2975 RMK A01 T02310083  RH  039%=      5-min Rain = 0
KMC1 182229Z 22009KT 23/08 A2975 RMK A01 T02310083  RH  039%=      5-min Rain = 0
KMC1 182230Z 21007G12KT 23/08 A2975 RMK A01 T02310083  RH  039%=      5-min Rain = 0
KMC1 182231Z 20009KT 23/08 A2975 RMK A01 T02320084  RH  039%=      5-min Rain = 0
KMC1 182232Z 21012KT 23/08 A2975 RMK A01 T02320080  RH  038%=      5-min Rain = 0
KMC1 182233Z 21012G18KT 23/07 A2975 RMK A01 T02310073  RH  036%=      5-min Rain = 0
KMC1 182234Z 22011G17KT 23/07 A2975 RMK A01 T02300073  RH  036%=      5-min Rain = 0
KMC1 182235Z 23015KT 23/07 A2975 RMK A01 T02300071  RH  036%=      5-min Rain = 0
KMC1 182236Z 21012G17KT 23/07 A2975 RMK A01 T02290070  RH  036%=      5-min Rain = 0
KMC1 182237Z 22010KT 23/07 A2975 RMK A01 T02280071  RH  036%=      5-min Rain = 0
KMC1 182238Z 22009G14KT 23/07 A2975 RMK A01 T02280071  RH  036%=      5-min Rain = 0
KMC1 182239Z 21010KT 23/07 A2975 RMK A01 T02280072  RH  037%=      5-min Rain = 0
KMC1 182240Z 21011KT 23/07 A2975 RMK A01 T02280070  RH  036%=      5-min Rain = 0
KMC1 182241Z 22009KT 23/07 A2975 RMK A01 T02280070  RH  036%=      5-min Rain = 0
KMC1 182242Z 21009G17KT 23/07 A2974 RMK A01 T02280070  RH  036%=      5-min Rain = 0
KMC1 182243Z 20012KT 23/07 A2974 RMK A01 T02280069  RH  036%=      5-min Rain = 0
KMC1 182244Z 20013KT 23/07 A2974 RMK A01 T02280067  RH  035%=      5-min Rain = 0
KMC1 182245Z 21014G20KT 23/07 A2974 RMK A01 T02270065  RH  035%=      5-min Rain = 0
KMC1 182246Z 22015KT 23/06 A2974 RMK A01 T02270064  RH  035%=      5-min Rain = 0
KMC1 182247Z 21008KT 23/07 A2974 RMK A01 T02260065  RH  035%=      5-min Rain = 0
KMC1 182248Z 22013KT 23/07 A2974 RMK A01 T02260065  RH  035%=      5-min Rain = 0
KMC1 182249Z 22013KT 23/07 A2974 RMK A01 T02260065  RH  035%=      5-min Rain = 0
KMC1 182250Z 23013KT 23/07 A2974 RMK A01 T02250066  RH  036%=      5-min Rain = 0
KMC1 182251Z 22011KT 23/07 A2974 RMK A01 T02250066  RH  036%=      5-min Rain = 0
KMC1 182252Z 23011G16KT 23/07 A2974 RMK A01 T02250067  RH  036%=      5-min Rain = 0
KMC1 182253Z 23008KT 23/07 A2974 RMK A01 T02250067  RH  036%=      5-min Rain = 0
KMC1 182254Z 23007KT 23/07 A2975 RMK A01 T02250069  RH  037%=      5-min Rain = 0
KMC1 182255Z 22009G14KT 23/07 A2975 RMK A01 T02250069  RH  036%=      5-min Rain = 0
KMC1 182256Z 23008KT 23/07 A2975 RMK A01 T02260070  RH  036%=      5-min Rain = 0
KMC1 182257Z 23010KT 23/07 A2975 RMK A01 T02260070  RH  037%=      5-min Rain = 0
KMC1 182258Z 23012KT 23/07 A2975 RMK A01 T02250069  RH  036%=      5-min Rain = 0
KMC1 182259Z 23013G18KT 23/07 A2975 RMK A01 T02250069  RH  037%=      5-min Rain = 0
KMC1 182300Z 23010KT 22/07 A2975 RMK A01 T02240070  RH  037%=      5-min Rain = 0
KMC1 182301Z 23007G12KT 22/07 A2975 RMK A01 T02240071  RH  037%=      5-min Rain = 0
KMC1 182302Z 22012G17KT 22/07 A2975 RMK A01 T02240071  RH  037%=      5-min Rain = 0
KMC1 182303Z 22014KT 22/07 A2974 RMK A01 T02240070  RH  037%=      5-min Rain = 0
KMC1 182304Z 22013KT 22/07 A2974 RMK A01 T02230069  RH  037%=      5-min Rain = 0
KMC1 182305Z 22010KT 22/07 A2974 RMK A01 T02230069  RH  037%=      5-min Rain = 0
KMC1 182306Z 21011G16KT 22/07 A2974 RMK A01 T02230070  RH  037%=      5-min Rain = 0
KMC1 182307Z 21011G17KT 22/07 A2974 RMK A01 T02230070  RH  037%=      5-min Rain = 0
KMC1 182308Z 21010KT 22/07 A2974 RMK A01 T02230070  RH  037%=      5-min Rain = 0
KMC1 182309Z 21011KT 22/07 A2974 RMK A01 T02220069  RH  037%=      5-min Rain = 0
KMC1 182310Z 22011G17KT 22/07 A2974 RMK A01 T02230068  RH  037%=      5-min Rain = 0
KMC1 182311Z 22008KT 22/07 A2974 RMK A01 T02220068  RH  037%=      5-min Rain = 0
KMC1 182312Z 22011KT 22/07 A2974 RMK A01 T02220067  RH  037%=      5-min Rain = 0
KMC1 182313Z 22010KT 22/07 A2974 RMK A01 T02210066  RH  037%=      5-min Rain = 0
KMC1 182314Z 22014KT 22/07 A2974 RMK A01 T02210065  RH  036%=      5-min Rain = 0
KMC1 182315Z 22008KT 22/07 A2974 RMK A01 T02200066  RH  037%=      5-min Rain = 0
KMC1 182316Z 22007KT 22/07 A2974 RMK A01 T02190067  RH  037%=      5-min Rain = 0
KMC1 182317Z 22009KT 22/07 A2974 RMK A01 T02190067  RH  037%=      5-min Rain = 0
KMC1 182318Z 22011KT 22/07 A2974 RMK A01 T02190066  RH  037%=      5-min Rain = 0
KMC1 182319Z 22009KT 22/07 A2974 RMK A01 T02190067  RH  037%=      5-min Rain = 0
KMC1 182320Z 21007KT 22/07 A2974 RMK A01 T02190068  RH  038%=      5-min Rain = 0
KMC1 182321Z 22007G12KT 22/07 A2974 RMK A01 T02190068  RH  038%=      5-min Rain = 0
KMC1 182322Z 22009KT 22/07 A2974 RMK A01 T02180067  RH  038%=      5-min Rain = 0
KMC1 182323Z 22007KT 22/07 A2974 RMK A01 T02180068  RH  038%=      5-min Rain = 0
KMC1 182324Z 22010G15KT 22/07 A2974 RMK A01 T02180068  RH  038%=      5-min Rain = 0
KMC1 182325Z 22009KT 22/07 A2974 RMK A01 T02170068  RH  038%=      5-min Rain = 0
KMC1 182326Z 22009KT 22/07 A2974 RMK A01 T02160068  RH  038%=      5-min Rain = 0
KMC1 182327Z 22008KT 22/07 A2974 RMK A01 T02160067  RH  038%=      5-min Rain = 0
KMC1 182328Z 22007KT 22/07 A2974 RMK A01 T02150068  RH  038%=      5-min Rain = 0
KMC1 182329Z 21009KT 22/07 A2974 RMK A01 T02150068  RH  039%=      5-min Rain = 0
KMC1 182330Z 22008KT 22/07 A2974 RMK A01 T02150068  RH  039%=      5-min Rain = 0
KMC1 182331Z 22009KT 22/07 A2974 RMK A01 T02150068  RH  039%=      5-min Rain = 0
KMC1 182332Z 22010KT 22/07 A2974 RMK A01 T02150067  RH  038%=      5-min Rain = 0
KMC1 182333Z 22008KT 22/07 A2974 RMK A01 T02150067  RH  038%=      5-min Rain = 0
KMC1 182334Z 22009KT 22/07 A2974 RMK A01 T02150068  RH  039%=      5-min Rain = 0
KMC1 182335Z 21006KT 22/07 A2974 RMK A01 T02150068  RH  038%=      5-min Rain = 0
KMC1 182336Z 21007KT 22/07 A2974 RMK A01 T02150068  RH  039%=      5-min Rain = 0
KMC1 182337Z 21006KT 22/07 A2974 RMK A01 T02150068  RH  039%=      5-min Rain = 0
KMC1 182338Z 23005KT 22/07 A2974 RMK A01 T02150069  RH  039%=      5-min Rain = 0
KMC1 182339Z 21007KT 21/07 A2974 RMK A01 T02140069  RH  039%=      5-min Rain = 0
KMC1 182340Z 22006KT 21/07 A2974 RMK A01 T02140069  RH  039%=      5-min Rain = 0
KMC1 182341Z 21006KT 21/07 A2974 RMK A01 T02140069  RH  039%=      5-min Rain = 0
KMC1 182342Z 21006KT 21/07 A2974 RMK A01 T02130069  RH  039%=      5-min Rain = 0
KMC1 182343Z 22006KT 21/07 A2974 RMK A01 T02120070  RH  040%=      5-min Rain = 0
KMC1 182344Z 21005KT 21/07 A2974 RMK A01 T02110070  RH  040%=      5-min Rain = 0
KMC1 182345Z 21006KT 21/07 A2974 RMK A01 T02100070  RH  040%=      5-min Rain = 0
KMC1 182346Z 21006KT 21/07 A2974 RMK A01 T02100070  RH  040%=      5-min Rain = 0
KMC1 182347Z 22006KT 21/07 A2974 RMK A01 T02090070  RH  041%=      5-min Rain = 0
KMC1 182348Z 22007KT 21/07 A2974 RMK A01 T02080070  RH  041%=      5-min Rain = 0
KMC1 182349Z 22007KT 21/07 A2974 RMK A01 T02070070  RH  041%=      5-min Rain = 0
KMC1 182350Z 22006KT 21/07 A2974 RMK A01 T02070070  RH  041%=      5-min Rain = 0
KMC1 182351Z 22006KT 21/07 A2974 RMK A01 T02060070  RH  041%=      5-min Rain = 0
KMC1 182352Z 21006KT 21/07 A2974 RMK A01 T02050070  RH  042%=      5-min Rain = 0
KMC1 182353Z 22007KT 21/07 A2974 RMK A01 T02050070  RH  042%=      5-min Rain = 0
KMC1 182354Z 21006KT 20/07 A2974 RMK A01 T02040069  RH  042%=      5-min Rain = 0
KMC1 182355Z 21005KT 20/07 A2974 RMK A01 T02040070  RH  042%=      5-min Rain = 0
KMC1 182356Z 22007KT 20/07 A2974 RMK A01 T02030070  RH  042%=      5-min Rain = 0
KMC1 182357Z 22006KT 20/07 A2975 RMK A01 T02030069  RH  042%=      5-min Rain = 0
KMC1 182358Z 22005KT 20/07 A2975 RMK A01 T02030070  RH  042%=      5-min Rain = 0
KMC1 182359Z 22006KT 20/07 A2975 RMK A01 T02020070  RH  042%=      5-min Rain = 0
KMC1 190000Z 22006KT 20/07 A2975 RMK A01 T02020070  RH  042%=      5-min Rain = 0
KMC1 190001Z 22006KT 20/07 A2975 RMK A01 T02010070  RH  043%=      5-min Rain = 0
KMC1 190002Z 21007KT 20/07 A2975 RMK A01 T02010070  RH  043%=      5-min Rain = 0
KMC1 190003Z 22006KT 20/07 A2975 RMK A01 T02000070  RH  043%=      5-min Rain = 0
KMC1 190004Z 22005KT 20/07 A2975 RMK A01 T02000070  RH  043%=      5-min Rain = 0
KMC1 190005Z 21006KT 20/07 A2975 RMK A01 T01990070  RH  043%=      5-min Rain = 0
KMC1 190006Z 22007KT 20/07 A2975 RMK A01 T01980070  RH  043%=      5-min Rain = 0
KMC1 190007Z 22006KT 20/07 A2975 RMK A01 T01980070  RH  043%=      5-min Rain = 0
KMC1 190008Z 22006KT 20/07 A2975 RMK A01 T01980070  RH  043%=      5-min Rain = 0
KMC1 190009Z 22005KT 20/07 A2975 RMK A01 T01980070  RH  044%=      5-min Rain = 0
KMC1 190010Z 22005KT 20/07 A2975 RMK A01 T01970070  RH  044%=      5-min Rain = 0
KMC1 190011Z 21006KT 20/07 A2975 RMK A01 T01960070  RH  044%=      5-min Rain = 0
KMC1 190012Z 22006KT 20/07 A2975 RMK A01 T01950070  RH  044%=      5-min Rain = 0
KMC1 190013Z 22005KT 20/07 A2975 RMK A01 T01950070  RH  044%=      5-min Rain = 0
KMC1 190014Z 22005KT 20/07 A2975 RMK A01 T01950070  RH  044%=      5-min Rain = 0
KMC1 190015Z 22005KT 19/07 A2975 RMK A01 T01940070  RH  045%=      5-min Rain = 0
KMC1 190016Z 22005KT 19/07 A2975 RMK A01 T01940071  RH  045%=      5-min Rain = 0
KMC1 190017Z 22006KT 19/07 A2975 RMK A01 T01920070  RH  045%=      5-min Rain = 0
KMC1 190018Z 22005KT 19/07 A2975 RMK A01 T01920070  RH  045%=      5-min Rain = 0
KMC1 190019Z 22006KT 19/07 A2975 RMK A01 T01910070  RH  045%=      5-min Rain = 0
KMC1 190020Z 22005KT 19/07 A2975 RMK A01 T01910071  RH  045%=      5-min Rain = 0
KMC1 190021Z 22005KT 19/07 A2975 RMK A01 T01910071  RH  046%=      5-min Rain = 0
KMC1 190022Z 23005KT 19/07 A2975 RMK A01 T01900071  RH  046%=      5-min Rain = 0
KMC1 190023Z 23005KT 19/07 A2975 RMK A01 T01890071  RH  046%=      5-min Rain = 0
KMC1 190024Z 23005KT 19/07 A2975 RMK A01 T01890071  RH  046%=      5-min Rain = 0
KMC1 190025Z 23004KT 19/07 A2975 RMK A01 T01880071  RH  046%=      5-min Rain = 0
KMC1 190026Z 23005KT 19/07 A2975 RMK A01 T01870071  RH  047%=      5-min Rain = 0
KMC1 190027Z 23005KT 19/07 A2975 RMK A01 T01870071  RH  047%=      5-min Rain = 0
KMC1 190028Z 23005KT 19/07 A2975 RMK A01 T01860071  RH  047%=      5-min Rain = 0
KMC1 190029Z 23005KT 19/07 A2975 RMK A01 T01850071  RH  047%=      5-min Rain = 0
KMC1 190030Z 22005KT 19/07 A2975 RMK A01 T01850071  RH  047%=      5-min Rain = 0
KMC1 190031Z 22005KT 18/07 A2975 RMK A01 T01840071  RH  048%=      5-min Rain = 0
KMC1 190032Z 23005KT 18/07 A2975 RMK A01 T01830071  RH  048%=      5-min Rain = 0
KMC1 190033Z 23006KT 18/07 A2975 RMK A01 T01830072  RH  048%=      5-min Rain = 0
KMC1 190034Z 22006KT 18/07 A2975 RMK A01 T01820071  RH  048%=      5-min Rain = 0
KMC1 190035Z 22005KT 18/07 A2975 RMK A01 T01820071  RH  048%=      5-min Rain = 0
KMC1 190036Z 23005KT 18/07 A2976 RMK A01 T01820071  RH  048%=      5-min Rain = 0
KMC1 190037Z 23007KT 18/07 A2976 RMK A01 T01820072  RH  048%=      5-min Rain = 0
KMC1 190038Z 23005KT 18/07 A2976 RMK A01 T01820072  RH  049%=      5-min Rain = 0
KMC1 190039Z 23005KT 18/07 A2976 RMK A01 T01820072  RH  049%=      5-min Rain = 0
KMC1 190040Z 23005KT 18/07 A2976 RMK A01 T01810072  RH  049%=      5-min Rain = 0
KMC1 190041Z 22006KT 18/07 A2976 RMK A01 T01800072  RH  049%=      5-min Rain = 0
KMC1 190042Z 22006KT 18/07 A2976 RMK A01 T01800072  RH  049%=      5-min Rain = 0
KMC1 190043Z 22006KT 18/07 A2976 RMK A01 T01800073  RH  049%=      5-min Rain = 0
KMC1 190044Z 22006KT 18/07 A2976 RMK A01 T01800072  RH  049%=      5-min Rain = 0
KMC1 190045Z 23006KT 18/07 A2976 RMK A01 T01790072  RH  050%=      5-min Rain = 0
KMC1 190046Z 23006KT 18/07 A2976 RMK A01 T01780072  RH  050%=      5-min Rain = 0
KMC1 190047Z 23006KT 18/07 A2976 RMK A01 T01780073  RH  050%=      5-min Rain = 0
KMC1 190048Z 23006KT 18/07 A2976 RMK A01 T01780073  RH  050%=      5-min Rain = 0
KMC1 190049Z 23005KT 18/07 A2976 RMK A01 T01770073  RH  050%=      5-min Rain = 0
KMC1 190050Z 23007KT 18/07 A2976 RMK A01 T01770073  RH  051%=      5-min Rain = 0
KMC1 190051Z 22006KT 18/07 A2976 RMK A01 T01760073  RH  051%=      5-min Rain = 0
KMC1 190052Z 23006KT 18/07 A2976 RMK A01 T01760073  RH  051%=      5-min Rain = 0
KMC1 190053Z 22004KT 18/07 A2976 RMK A01 T01760073  RH  051%=      5-min Rain = 0
KMC1 190054Z 23006KT 18/07 A2976 RMK A01 T01760073  RH  051%=      5-min Rain = 0
KMC1 190055Z 22006KT 18/07 A2976 RMK A01 T01760073  RH  051%=      5-min Rain = 0
KMC1 190056Z 23006KT 18/07 A2976 RMK A01 T01760074  RH  051%=      5-min Rain = 0
KMC1 190057Z 23005KT 18/07 A2977 RMK A01 T01760074  RH  051%=      5-min Rain = 0
KMC1 190058Z 23006KT 18/07 A2977 RMK A01 T01760074  RH  051%=      5-min Rain = 0
KMC1 190059Z 23006KT 18/07 A2977 RMK A01 T01760074  RH  051%=      5-min Rain = 0
KMC1 190100Z 23007KT 18/07 A2977 RMK A01 T01770074  RH  051%=      5-min Rain = 0
KMC1 190101Z 23007KT 18/07 A2977 RMK A01 T01780074  RH  051%=      5-min Rain = 0
KMC1 190102Z 23006KT 18/07 A2977 RMK A01 T01780074  RH  051%=      5-min Rain = 0
KMC1 190103Z 23006KT 18/08 A2977 RMK A01 T01790075  RH  051%=      5-min Rain = 0
KMC1 190104Z 23006KT 18/08 A2977 RMK A01 T01790075  RH  051%=      5-min Rain = 0
KMC1 190105Z 23007KT 18/08 A2977 RMK A01 T01790075  RH  051%=      5-min Rain = 0
KMC1 190106Z 23007KT 18/08 A2977 RMK A01 T01800075  RH  050%=      5-min Rain = 0
KMC1 190107Z 23007KT 18/08 A2977 RMK A01 T01810075  RH  050%=      5-min Rain = 0
KMC1 190108Z 24007KT 18/08 A2977 RMK A01 T01820075  RH  050%=      5-min Rain = 0
KMC1 190109Z 23007KT 18/08 A2977 RMK A01 T01820075  RH  050%=      5-min Rain = 0
KMC1 190110Z 23006KT 18/08 A2977 RMK A01 T01830075  RH  050%=      5-min Rain = 0
KMC1 190111Z 23006KT 18/08 A2977 RMK A01 T01840076  RH  049%=      5-min Rain = 0
KMC1 190112Z 22006KT 18/08 A2977 RMK A01 T01840076  RH  049%=      5-min Rain = 0
KMC1 190113Z 22005KT 18/08 A2977 RMK A01 T01840076  RH  049%=      5-min Rain = 0
KMC1 190114Z 22005KT 18/08 A2977 RMK A01 T01840077  RH  050%=      5-min Rain = 0
KMC1 190115Z 22006KT 18/08 A2977 RMK A01 T01830077  RH  050%=      5-min Rain = 0
KMC1 190116Z 22006KT 18/08 A2977 RMK A01 T01830077  RH  050%=      5-min Rain = 0
KMC1 190117Z 22004KT 18/08 A2977 RMK A01 T01830078  RH  050%=      5-min Rain = 0
KMC1 190118Z 22006KT 18/08 A2977 RMK A01 T01820078  RH  050%=      5-min Rain = 0
KMC1 190119Z 21006KT 18/08 A2977 RMK A01 T01820077  RH  050%=      5-min Rain = 0
KMC1 190120Z 21006KT 18/08 A2977 RMK A01 T01820077  RH  050%=      5-min Rain = 0
KMC1 190121Z 22006KT 18/08 A2977 RMK A01 T01820077  RH  050%=      5-min Rain = 0
KMC1 190122Z 22007KT 18/08 A2977 RMK A01 T01820077  RH  050%=      5-min Rain = 0
KMC1 190123Z 22007KT 18/08 A2977 RMK A01 T01820076  RH  050%=      5-min Rain = 0
KMC1 190124Z 22006KT 18/08 A2977 RMK A01 T01830077  RH  050%=      5-min Rain = 0
KMC1 190125Z 22007KT 18/08 A2978 RMK A01 T01830077  RH  050%=      5-min Rain = 0
KMC1 190126Z 22007KT 18/08 A2978 RMK A01 T01830077  RH  050%=      5-min Rain = 0
KMC1 190127Z 22007KT 18/08 A2978 RMK A01 T01830077  RH  050%=      5-min Rain = 0
KMC1 190128Z 22006KT 18/08 A2978 RMK A01 T01830077  RH  050%=      5-min Rain = 0
KMC1 190129Z 23006KT 18/08 A2978 RMK A01 T01840078  RH  050%=      5-min Rain = 0
KMC1 190130Z 23006KT 18/08 A2978 RMK A01 T01840078  RH  050%=      5-min Rain = 0
KMC1 190131Z 22006KT 18/08 A2978 RMK A01 T01830078  RH  050%=      5-min Rain = 0
KMC1 190132Z 23006KT 18/08 A2978 RMK A01 T01820078  RH  051%=      5-min Rain = 0
KMC1 190133Z 24005KT 18/08 A2978 RMK A01 T01820078  RH  051%=      5-min Rain = 0
KMC1 190134Z 26006KT 18/08 A2978 RMK A01 T01820079  RH  051%=      5-min Rain = 0
KMC1 190135Z 29006KT 18/08 A2979 RMK A01 T01820079  RH  051%=      5-min Rain = 0
KMC1 190136Z 30007KT 18/08 A2979 RMK A01 T01820080  RH  051%=      5-min Rain = 0
KMC1 190137Z 29007KT 18/08 A2979 RMK A01 T01810080  RH  052%=      5-min Rain = 0
KMC1 190138Z 28006KT 18/08 A2979 RMK A01 T01800080  RH  052%=      5-min Rain = 0
KMC1 190139Z 26005KT 18/08 A2979 RMK A01 T01800079  RH  052%=      5-min Rain = 0
KMC1 190140Z 25005KT 18/08 A2979 RMK A01 T01800079  RH  052%=      5-min Rain = 0
KMC1 190141Z 25006KT 18/08 A2979 RMK A01 T01800079  RH  052%=      5-min Rain = 0
KMC1 190142Z 24006KT 18/08 A2979 RMK A01 T01800079  RH  051%=      5-min Rain = 0
KMC1 190143Z 25006KT 18/08 A2979 RMK A01 T01800079  RH  051%=      5-min Rain = 0
KMC1 190144Z 25006KT 18/08 A2979 RMK A01 T01810079  RH  051%=      5-min Rain = 0
KMC1 190145Z 25006KT 18/08 A2979 RMK A01 T01810079  RH  051%=      5-min Rain = 0
KMC1 190146Z 26004KT 18/08 A2979 RMK A01 T01810079  RH  051%=      5-min Rain = 0
KMC1 190147Z 26005KT 18/08 A2979 RMK A01 T01810079  RH  051%=      5-min Rain = 0
KMC1 190148Z 26004KT 18/08 A2979 RMK A01 T01810080  RH  052%=      5-min Rain = 0
KMC1 190149Z 26005KT 18/08 A2979 RMK A01 T01810079  RH  052%=      5-min Rain = 0
KMC1 190150Z 26004KT 18/08 A2979 RMK A01 T01800079  RH  052%=      5-min Rain = 0
KMC1 190151Z 26004KT 18/08 A298 RMK A01 T01800079  RH  052%=      5-min Rain = 0
KMC1 190152Z 25004KT 18/08 A298 RMK A01 T01790080  RH  052%=      5-min Rain = 0
KMC1 190153Z 24004KT 18/08 A2979 RMK A01 T01790079  RH  052%=      5-min Rain = 0
KMC1 190154Z 24004KT 18/08 A298 RMK A01 T01790080  RH  052%=      5-min Rain = 0
KMC1 190155Z 24004KT 18/08 A298 RMK A01 T01780080  RH  053%=      5-min Rain = 0
KMC1 190156Z 23004KT 18/08 A298 RMK A01 T01780080  RH  053%=      5-min Rain = 0
KMC1 190157Z 23004KT 18/08 A298 RMK A01 T01770080  RH  053%=      5-min Rain = 0
KMC1 190158Z 23004KT 18/08 A298 RMK A01 T01770080  RH  053%=      5-min Rain = 0
KMC1 190159Z 23005KT 18/08 A298 RMK A01 T01770080  RH  053%=      5-min Rain = 0
KMC1 190200Z 23005KT 18/08 A298 RMK A01 T01760080  RH  053%=      5-min Rain = 0
KMC1 190201Z 23005KT 18/08 A298 RMK A01 T01760080  RH  054%=      5-min Rain = 0
KMC1 190202Z 24004KT 18/08 A298 RMK A01 T01760081  RH  054%=      5-min Rain = 0
KMC1 190203Z 24003KT 18/08 A298 RMK A01 T01750081  RH  054%=      5-min Rain = 0
KMC1 190204Z 25004KT 18/08 A298 RMK A01 T01750081  RH  054%=      5-min Rain = 0
KMC1 190205Z 24005KT 18/08 A298 RMK A01 T01750081  RH  054%=      5-min Rain = 0
KMC1 190206Z 24004KT 18/08 A298 RMK A01 T01750081  RH  054%=      5-min Rain = 0
KMC1 190207Z 24004KT 18/08 A298 RMK A01 T01750081  RH  054%=      5-min Rain = 0
KMC1 190208Z 25005KT 17/08 A298 RMK A01 T01740081  RH  054%=      5-min Rain = 0
KMC1 190209Z 26004KT 18/08 A298 RMK A01 T01750081  RH  054%=      5-min Rain = 0
KMC1 190210Z 25005KT 18/08 A298 RMK A01 T01750081  RH  054%=      5-min Rain = 0
KMC1 190211Z 25004KT 17/08 A298 RMK A01 T01740081  RH  054%=      5-min Rain = 0
KMC1 190212Z 25004KT 17/08 A2981 RMK A01 T01740082  RH  054%=      5-min Rain = 0
KMC1 190213Z 25006KT 17/08 A2981 RMK A01 T01740082  RH  055%=      5-min Rain = 0
KMC1 190214Z 25006KT 17/08 A2981 RMK A01 T01740082  RH  055%=      5-min Rain = 0
KMC1 190215Z 25005KT 17/08 A2981 RMK A01 T01740083  RH  055%=      5-min Rain = 0
KMC1 190216Z 25005KT 17/08 A2981 RMK A01 T01740083  RH  055%=      5-min Rain = 0
KMC1 190217Z 23005KT 17/08 A2981 RMK A01 T01740083  RH  055%=      5-min Rain = 0
KMC1 190218Z 23004KT 17/08 A2981 RMK A01 T01730083  RH  055%=      5-min Rain = 0
KMC1 190219Z 23005KT 17/08 A2981 RMK A01 T01730084  RH  056%=      5-min Rain = 0
KMC1 190220Z 23004KT 17/09 A2981 RMK A01 T01720085  RH  056%=      5-min Rain = 0
KMC1 190221Z 22005G10KT 17/09 A2981 RMK A01 T01720085  RH  057%=      5-min Rain = 0
KMC1 190222Z 22007KT 17/09 A2981 RMK A01 T01710085  RH  057%=      5-min Rain = 0
KMC1 190223Z 22007KT 17/09 A2981 RMK A01 T01710085  RH  057%=      5-min Rain = 0
KMC1 190224Z 22007KT 17/09 A2981 RMK A01 T01710085  RH  057%=      5-min Rain = 0
KMC1 190225Z 22007KT 17/08 A2981 RMK A01 T01710084  RH  057%=      5-min Rain = 0
KMC1 190226Z 22007KT 17/08 A2982 RMK A01 T01710084  RH  057%=      5-min Rain = 0
KMC1 190227Z 22007KT 17/08 A2982 RMK A01 T01710084  RH  056%=      5-min Rain = 0
KMC1 190228Z 23007KT 17/08 A2982 RMK A01 T01720084  RH  056%=      5-min Rain = 0
KMC1 190229Z 23007KT 17/08 A2982 RMK A01 T01720084  RH  056%=      5-min Rain = 0
KMC1 190230Z 23008KT 17/08 A2982 RMK A01 T01720084  RH  056%=      5-min Rain = 0
KMC1 190231Z 23007KT 17/08 A2982 RMK A01 T01720084  RH  056%=      5-min Rain = 0
KMC1 190232Z 23008KT 17/08 A2982 RMK A01 T01720083  RH  056%=      5-min Rain = 0
KMC1 190233Z 23008KT 17/08 A2982 RMK A01 T01730082  RH  055%=      5-min Rain = 0
KMC1 190234Z 24008KT 17/08 A2983 RMK A01 T01740082  RH  055%=      5-min Rain = 0
KMC1 190235Z 24007KT 18/08 A2983 RMK A01 T01750082  RH  054%=      5-min Rain = 0
KMC1 190236Z 25007KT 18/08 A2983 RMK A01 T01760082  RH  054%=      5-min Rain = 0
KMC1 190237Z 26008KT 18/08 A2983 RMK A01 T01760081  RH  053%=      5-min Rain = 0
KMC1 190238Z 27006KT 18/08 A2983 RMK A01 T01770081  RH  053%=      5-min Rain = 0
KMC1 190239Z 26007KT 18/08 A2984 RMK A01 T01770082  RH  054%=      5-min Rain = 0
KMC1 190240Z 26007KT 18/08 A2984 RMK A01 T01770081  RH  053%=      5-min Rain = 0
KMC1 190241Z 26008G14KT 18/08 A2984 RMK A01 T01780079  RH  052%=      5-min Rain = 0
KMC1 190242Z 27010KT 18/08 A2984 RMK A01 T01790076  RH  051%=      5-min Rain = 0
KMC1 190243Z 26008KT 18/08 A2984 RMK A01 T01790076  RH  051%=      5-min Rain = 0
KMC1 190244Z 27007KT 18/08 A2984 RMK A01 T01800076  RH  051%=      5-min Rain = 0
KMC1 190245Z 27008KT 18/08 A2984 RMK A01 T01800077  RH  051%=      5-min Rain = 0
KMC1 190246Z 27009KT 18/08 A2984 RMK A01 T01790075  RH  050%=      5-min Rain = 0
KMC1 190247Z 27008KT 18/08 A2984 RMK A01 T01790075  RH  050%=      5-min Rain = 0
KMC1 190248Z 26007KT 18/08 A2984 RMK A01 T01790075  RH  050%=      5-min Rain = 0
KMC1 190249Z 27008KT 18/08 A2985 RMK A01 T01790075  RH  050%=      5-min Rain = 0
KMC1 190250Z 27008KT 18/07 A2985 RMK A01 T01790074  RH  050%=      5-min Rain = 0
KMC1 190251Z 28009KT 18/07 A2985 RMK A01 T01790074  RH  050%=      5-min Rain = 0
KMC1 190252Z 28009KT 18/07 A2985 RMK A01 T01790073  RH  050%=      5-min Rain = 0
KMC1 190253Z 28008KT 18/07 A2985 RMK A01 T01780073  RH  050%=      5-min Rain = 0
KMC1 190254Z 28008KT 18/07 A2986 RMK A01 T01780073  RH  050%=      5-min Rain = 0
KMC1 190255Z 27010KT 18/07 A2986 RMK A01 T01780073  RH  050%=      5-min Rain = 0
KMC1 190256Z 29012KT 18/07 A2986 RMK A01 T01770068  RH  049%=      5-min Rain = 0
KMC1 190257Z 28013KT 18/07 A2986 RMK A01 T01780067  RH  048%=      5-min Rain = 0
KMC1 190258Z 29015G22KT 18/06 A2986 RMK A01 T01790064  RH  047%=      5-min Rain = 0
KMC1 190259Z 29012KT 18/06 A2986 RMK A01 T01800064  RH  047%=      5-min Rain = 0
KMC1 190300Z 30012KT 18/06 A2987 RMK A01 T01800061  RH  046%=      5-min Rain = 0
KMC1 190301Z 30012KT 18/06 A2987 RMK A01 T01800058  RH  045%=      5-min Rain = 0
KMC1 190302Z 30016KT 18/05 A2987 RMK A01 T01800053  RH  043%=      5-min Rain = 0
KMC1 190303Z 30013G18KT 18/05 A2987 RMK A01 T01810049  RH  042%=      5-min Rain = 0
KMC1 190304Z 30014G19KT 18/05 A2987 RMK A01 T01820045  RH  040%=      5-min Rain = 0
KMC1 190305Z 30015KT 18/04 A2987 RMK A01 T01830044  RH  040%=      5-min Rain = 0
KMC1 190306Z 29014KT 18/04 A2987 RMK A01 T01830041  RH  039%=      5-min Rain = 0
KMC1 190307Z 30012G19KT 18/04 A2987 RMK A01 T01830041  RH  039%=      5-min Rain = 0
KMC1 190308Z 30016G23KT 18/04 A2987 RMK A01 T01830037  RH  038%=      5-min Rain = 0
KMC1 190309Z 30013KT 18/03 A2987 RMK A01 T01830034  RH  037%=      5-min Rain = 0
KMC1 190310Z 29011KT 18/04 A2987 RMK A01 T01820035  RH  037%=      5-min Rain = 0
KMC1 190311Z 30015KT 18/03 A2988 RMK A01 T01820028  RH  036%=      5-min Rain = 0
KMC1 190312Z 30016KT 18/02 A2988 RMK A01 T01820023  RH  034%=      5-min Rain = 0
KMC1 190313Z 29013G19KT 18/02 A2988 RMK A01 T01810020  RH  034%=      5-min Rain = 0
KMC1 190314Z 29012G17KT 18/02 A2988 RMK A01 T01810016  RH  033%=      5-min Rain = 0
KMC1 190315Z 30014G20KT 18/02 A2988 RMK A01 T01810015  RH  033%=      5-min Rain = 0
KMC1 190316Z 30016G22KT 18/01 A2988 RMK A01 T01800012  RH  032%=      5-min Rain = 0
KMC1 190317Z 30016KT 18/01 A2988 RMK A01 T01800012  RH  032%=      5-min Rain = 0
KMC1 190318Z 30015KT 18/01 A2988 RMK A01 T01810012  RH  032%=      5-min Rain = 0
KMC1 190319Z 30012KT 18/01 A2988 RMK A01 T01800011  RH  032%=      5-min Rain = 0
KMC1 190320Z 31015G20KT 18/01 A2988 RMK A01 T01800011  RH  032%=      5-min Rain = 0
KMC1 190321Z 30014KT 18/01 A2988 RMK A01 T01800010  RH  032%=      5-min Rain = 0
KMC1 190322Z 30012KT 18/01 A2988 RMK A01 T01800013  RH  033%=      5-min Rain = 0
KMC1 190323Z 30015G21KT 18/02 A2989 RMK A01 T01790015  RH  033%=      5-min Rain = 0
KMC1 190324Z 30014G21KT 18/01 A2989 RMK A01 T01780012  RH  033%=      5-min Rain = 0
KMC1 190325Z 29013KT 18/01 A2988 RMK A01 T01770010  RH  032%=      5-min Rain = 0
KMC1 190326Z 30012G18KT 18/01 A2988 RMK A01 T01770010  RH  032%=      5-min Rain = 0
KMC1 190327Z 30011KT 18/01 A2988 RMK A01 T01760009  RH  032%=      5-min Rain = 0
KMC1 190328Z 31010KT 18/01 A2988 RMK A01 T01760010  RH  033%=      5-min Rain = 0
KMC1 190329Z 30010KT 18/01 A2989 RMK A01 T01750011  RH  033%=      5-min Rain = 0
KMC1 190330Z 31009KT 18/01 A2989 RMK A01 T01750011  RH  033%=      5-min Rain = 0
KMC1 190331Z 30013G18KT 17/01 A2989 RMK A01 T01740010  RH  033%=      5-min Rain = 0
KMC1 190332Z 30015KT 18/01 A2989 RMK A01 T01750006  RH  032%=      5-min Rain = 0
KMC1 190333Z 29013G18KT 18/00 A299 RMK A01 T01750003  RH  031%=      5-min Rain = 0
KMC1 190334Z 29013KT 18/00 A299 RMK A01 T01760003  RH  031%=      5-min Rain = 0
KMC1 190335Z 29013KT 18/00 A299 RMK A01 T01750002  RH  031%=      5-min Rain = 0
KMC1 190336Z 29014G20KT 18/00 A2991 RMK A01 T01750003  RH  031%=      5-min Rain = 0
KMC1 190337Z 29013G18KT 18/00 A2991 RMK A01 T01750000  RH  031%=      5-min Rain = 0
KMC1 190338Z 30014KT 18/00 A2991 RMK A01 T01750001  RH  031%=      5-min Rain = 0
KMC1 190339Z 29015KT 18/M00 A2991 RMK A01 T01751001  RH  030%=      5-min Rain = 0
KMC1 190340Z 29011KT 18/00 A2991 RMK A01 T01750000  RH  031%=      5-min Rain = 0
KMC1 190341Z 30013KT 17/00 A299 RMK A01 T017400-0  RH  031%=      5-min Rain = 0
KMC1 190342Z 30012KT 17/M00 A299 RMK A01 T01741001  RH  031%=      5-min Rain = 0
KMC1 190343Z 30011KT 17/M00 A299 RMK A01 T01731003  RH  030%=      5-min Rain = 0
KMC1 190344Z 30013KT 17/M00 A299 RMK A01 T01731003  RH  030%=      5-min Rain = 0
KMC1 190345Z 30011KT 17/M00 A299 RMK A01 T01731004  RH  030%=      5-min Rain = 0
KMC1 190346Z 29013G19KT 17/M00 A299 RMK A01 T01731004  RH  030%=      5-min Rain = 0
KMC1 190347Z 30010KT 17/M01 A299 RMK A01 T01721006  RH  030%=      5-min Rain = 0
KMC1 190348Z 30012KT 17/M00 A2991 RMK A01 T01721004  RH  030%=      5-min Rain = 0
KMC1 190349Z 30014KT 17/M01 A2991 RMK A01 T01721007  RH  030%=      5-min Rain = 0
KMC1 190350Z 29011KT 17/M01 A2991 RMK A01 T01721007  RH  030%=      5-min Rain = 0
KMC1 190351Z 29011KT 17/M01 A2991 RMK A01 T01721006  RH  030%=      5-min Rain = 0
KMC1 190352Z 29012KT 17/M01 A2991 RMK A01 T01711005  RH  030%=      5-min Rain = 0
KMC1 190353Z 30009KT 17/M01 A2991 RMK A01 T01711006  RH  030%=      5-min Rain = 0
KMC1 190354Z 30010KT 17/M01 A2991 RMK A01 T01711005  RH  030%=      5-min Rain = 0
KMC1 190355Z 30009KT 17/M01 A2991 RMK A01 T01701006  RH  030%=      5-min Rain = 0
KMC1 190356Z 30010KT 17/M01 A2991 RMK A01 T01711005  RH  030%=      5-min Rain = 0
KMC1 190357Z 29009KT 17/M01 A2991 RMK A01 T01701008  RH  030%=      5-min Rain = 0
KMC1 190358Z 29008KT 17/M01 A2991 RMK A01 T01701006  RH  030%=      5-min Rain = 0
KMC1 190359Z 30009KT 17/M01 A2991 RMK A01 T01701007  RH  030%=      5-min Rain = 0
KMC1 190400Z 30008KT 17/M01 A2991 RMK A01 T01701007  RH  030%=      5-min Rain = 0
KMC1 190401Z 29008KT 17/M01 A2991 RMK A01 T01701006  RH  030%=      5-min Rain = 0
KMC1 190402Z 30009KT 17/M00 A2991 RMK A01 T01691004  RH  031%=      5-min Rain = 0
KMC1 190403Z 30010KT 17/M01 A2991 RMK A01 T01691007  RH  030%=      5-min Rain = 0
KMC1 190404Z 30008G13KT 17/M01 A2991 RMK A01 T01691008  RH  030%=      5-min Rain = 0
KMC1 190405Z 29008KT 17/M01 A2991 RMK A01 T01691007  RH  030%=      5-min Rain = 0
KMC1 190406Z 31009G16KT 17/M01 A2991 RMK A01 T01681008  RH  030%=      5-min Rain = 0
KMC1 190407Z 33010KT 17/M01 A2991 RMK A01 T01681010  RH  030%=      5-min Rain = 0
KMC1 190408Z 31006KT 17/M01 A2991 RMK A01 T01681010  RH  030%=      5-min Rain = 0
KMC1 190409Z 31009KT 17/M01 A2991 RMK A01 T01681009  RH  030%=      5-min Rain = 0
KMC1 190410Z 29009G14KT 17/M01 A2991 RMK A01 T01691008  RH  030%=      5-min Rain = 0
KMC1 190411Z 29013KT 17/M01 A2991 RMK A01 T01681009  RH  030%=      5-min Rain = 0
KMC1 190412Z 29012KT 17/M01 A2991 RMK A01 T01681010  RH  030%=      5-min Rain = 0
KMC1 190413Z 29013KT 17/M01 A2991 RMK A01 T01681007  RH  030%=      5-min Rain = 0
KMC1 190414Z 30011KT 17/M01 A2991 RMK A01 T01681012  RH  029%=      5-min Rain = 0
KMC1 190415Z 30010KT 17/M01 A2991 RMK A01 T01671011  RH  030%=      5-min Rain = 0
KMC1 190416Z 30013KT 17/M01 A2991 RMK A01 T01671013  RH  029%=      5-min Rain = 0
KMC1 190417Z 29010KT 17/M01 A2991 RMK A01 T01671014  RH  029%=      5-min Rain = 0
KMC1 190418Z 29013G18KT 17/M01 A2991 RMK A01 T01671014  RH  029%=      5-min Rain = 0
KMC1 190419Z 31012G19KT 17/M02 A299 RMK A01 T01671018  RH  028%=      5-min Rain = 0
KMC1 190420Z 30014G20KT 17/M02 A299 RMK A01 T01671017  RH  028%=      5-min Rain = 0
KMC1 190421Z 30014KT 17/M02 A299 RMK A01 T01671020  RH  028%=      5-min Rain = 0
KMC1 190422Z 30008KT 17/M02 A299 RMK A01 T01681018  RH  028%=      5-min Rain = 0
KMC1 190423Z 30009KT 17/M02 A299 RMK A01 T01681017  RH  028%=      5-min Rain = 0
KMC1 190424Z 29011KT 17/M02 A299 RMK A01 T01671017  RH  028%=      5-min Rain = 0
KMC1 190425Z 29011KT 17/M02 A299 RMK A01 T01671018  RH  028%=      5-min Rain = 0
KMC1 190426Z 29012KT 17/M02 A299 RMK A01 T01671017  RH  028%=      5-min Rain = 0
KMC1 190427Z 30010KT 17/M02 A2991 RMK A01 T01671016  RH  029%=      5-min Rain = 0
KMC1 190428Z 30012KT 17/M02 A2991 RMK A01 T01661017  RH  029%=      5-min Rain = 0
KMC1 190429Z 28014G19KT 17/M02 A2991 RMK A01 T01671021  RH  028%=      5-min Rain = 0
KMC1 190430Z 29012G17KT 17/M02 A2991 RMK A01 T01671023  RH  027%=      5-min Rain = 0
KMC1 190431Z 30014KT 17/M02 A2991 RMK A01 T01681021  RH  027%=      5-min Rain = 0
KMC1 190432Z 30014KT 17/M02 A2991 RMK A01 T01671020  RH  028%=      5-min Rain = 0
KMC1 190433Z 30011KT 17/M02 A299 RMK A01 T01671021  RH  027%=      5-min Rain = 0
KMC1 190434Z 29012KT 17/M02 A299 RMK A01 T01671023  RH  027%=      5-min Rain = 0
KMC1 190435Z 29010KT 17/M02 A299 RMK A01 T01671024  RH  027%=      5-min Rain = 0
KMC1 190436Z 29009KT 17/M02 A299 RMK A01 T01671022  RH  028%=      5-min Rain = 0
KMC1 190437Z 29008KT 17/M02 A299 RMK A01 T01661022  RH  027%=      5-min Rain = 0
KMC1 190438Z 28008KT 17/M02 A299 RMK A01 T01661021  RH  028%=      5-min Rain = 0
KMC1 190439Z 28009KT 17/M02 A299 RMK A01 T01651023  RH  028%=      5-min Rain = 0
KMC1 190440Z 29009G14KT 17/M02 A299 RMK A01 T01651022  RH  028%=      5-min Rain = 0
KMC1 190441Z 29010KT 17/M02 A2991 RMK A01 T01651024  RH  027%=      5-min Rain = 0
KMC1 190442Z 29008KT 17/M02 A2991 RMK A01 T01651024  RH  027%=      5-min Rain = 0
KMC1 190443Z 28006KT 17/M02 A2991 RMK A01 T01651022  RH  028%=      5-min Rain = 0
KMC1 190444Z 28008KT 16/M02 A2991 RMK A01 T01641022  RH  028%=      5-min Rain = 0
KMC1 190445Z 28007KT 16/M02 A2991 RMK A01 T01641023  RH  028%=      5-min Rain = 0
KMC1 190446Z 28007KT 16/M02 A299 RMK A01 T01641022  RH  028%=      5-min Rain = 0
KMC1 190447Z 29006KT 16/M02 A299 RMK A01 T01641022  RH  028%=      5-min Rain = 0
KMC1 190448Z 28007KT 16/M02 A299 RMK A01 T01631022  RH  028%=      5-min Rain = 0
KMC1 190449Z 28011KT 16/M02 A2991 RMK A01 T01631021  RH  028%=      5-min Rain = 0
KMC1 190450Z 28009KT 16/M03 A2991 RMK A01 T01631025  RH  027%=      5-min Rain = 0
KMC1 190451Z 29009KT 16/M03 A2991 RMK A01 T01631026  RH  027%=      5-min Rain = 0
KMC1 190452Z 28010G18KT 16/M03 A2991 RMK A01 T01631027  RH  027%=      5-min Rain = 0
KMC1 190453Z 28015KT 16/M03 A2991 RMK A01 T01641029  RH  026%=      5-min Rain = 0
KMC1 190454Z 29015G20KT 17/M03 A2991 RMK A01 T01651031  RH  026%=      5-min Rain = 0
KMC1 190455Z 28014G21KT 17/M03 A2991 RMK A01 T01651029  RH  026%=      5-min Rain = 0
KMC1 190456Z 29012KT 17/M03 A2991 RMK A01 T01651030  RH  026%=      5-min Rain = 0
KMC1 190457Z 29011G17KT 17/M03 A2991 RMK A01 T01651029  RH  026%=      5-min Rain = 0
KMC1 190458Z 29013KT 17/M03 A2991 RMK A01 T01651029  RH  026%=      5-min Rain = 0
KMC1 190459Z 28010KT 17/M03 A2991 RMK A01 T01651030  RH  026%=      5-min Rain = 0
KMC1 190500Z 29011KT 17/M03 A2991 RMK A01 T01651030  RH  026%=      5-min Rain = 0
KMC1 190501Z 29011KT 17/M03 A2991 RMK A01 T01651030  RH  026%=      5-min Rain = 0
KMC1 190502Z 28009KT 17/M03 A2991 RMK A01 T01651029  RH  026%=      5-min Rain = 0
KMC1 190503Z 28009KT 16/M03 A2991 RMK A01 T01641028  RH  027%=      5-min Rain = 0
KMC1 190504Z 28012KT 16/M03 A2991 RMK A01 T01641028  RH  027%=      5-min Rain = 0
KMC1 190505Z 29009KT 16/M03 A2991 RMK A01 T01631028  RH  027%=      5-min Rain = 0
KMC1 190506Z 29010KT 16/M03 A2992 RMK A01 T01631027  RH  027%=      5-min Rain = 0
KMC1 190507Z 28009KT 16/M03 A2992 RMK A01 T01621025  RH  028%=      5-min Rain = 0
KMC1 190508Z 29012G19KT 16/M03 A2992 RMK A01 T01621027  RH  027%=      5-min Rain = 0
KMC1 190509Z 28011G16KT 16/M03 A2991 RMK A01 T01621030  RH  027%=      5-min Rain = 0
KMC1 190510Z 29012KT 16/M03 A2991 RMK A01 T01621029  RH  027%=      5-min Rain = 0
KMC1 190511Z 30015G20KT 16/M03 A2991 RMK A01 T01621028  RH  027%=      5-min Rain = 0
KMC1 190512Z 29014KT 16/M03 A2991 RMK A01 T01621029  RH  027%=      5-min Rain = 0
KMC1 190513Z 29014G19KT 16/M03 A2991 RMK A01 T01621029  RH  027%=      5-min Rain = 0
KMC1 190514Z 30013KT 16/M03 A2991 RMK A01 T01621029  RH  027%=      5-min Rain = 0
KMC1 190515Z 29015G22KT 16/M03 A2991 RMK A01 T01621029  RH  027%=      5-min Rain = 0
KMC1 190516Z 29012KT 16/M03 A2991 RMK A01 T01631030  RH  027%=      5-min Rain = 0
KMC1 190517Z 29011KT 16/M03 A2991 RMK A01 T01621029  RH  027%=      5-min Rain = 0
KMC1 190518Z 28008KT 16/M03 A2991 RMK A01 T01621028  RH  027%=      5-min Rain = 0
KMC1 190519Z 29015KT 16/M03 A2991 RMK A01 T01611029  RH  027%=      5-min Rain = 0
KMC1 190520Z 29012KT 16/M03 A2991 RMK A01 T01611030  RH  027%=      5-min Rain = 0
KMC1 190521Z 29013G18KT 16/M03 A2991 RMK A01 T01611028  RH  027%=      5-min Rain = 0
KMC1 190522Z 29017G22KT 16/M03 A2991 RMK A01 T01601029  RH  027%=      5-min Rain = 0
KMC1 190523Z 29014G22KT 16/M03 A2991 RMK A01 T01601029  RH  027%=      5-min Rain = 0
KMC1 190524Z 30016G23KT 16/M03 A2991 RMK A01 T01601028  RH  027%=      5-min Rain = 0
KMC1 190525Z 29017G24KT 16/M03 A2991 RMK A01 T01601028  RH  027%=      5-min Rain = 0
KMC1 190526Z 29011KT 16/M03 A2992 RMK A01 T01601026  RH  028%=      5-min Rain = 0
KMC1 190527Z 28012G21KT 16/M03 A2992 RMK A01 T01591026  RH  028%=      5-min Rain = 0
KMC1 190528Z 29016G22KT 16/M03 A2992 RMK A01 T01591027  RH  028%=      5-min Rain = 0
KMC1 190529Z 29012KT 16/M03 A2992 RMK A01 T01591026  RH  028%=      5-min Rain = 0
KMC1 190530Z 29009KT 16/M03 A2992 RMK A01 T01581025  RH  028%=      5-min Rain = 0
KMC1 190531Z 28014G21KT 16/M03 A2992 RMK A01 T01581026  RH  028%=      5-min Rain = 0
KMC1 190532Z 29011KT 16/M03 A2992 RMK A01 T01581027  RH  028%=      5-min Rain = 0
KMC1 190533Z 28011G18KT 16/M03 A2992 RMK A01 T01581026  RH  028%=      5-min Rain = 0
KMC1 190534Z 28011G16KT 16/M03 A2992 RMK A01 T01581028  RH  028%=      5-min Rain = 0
KMC1 190535Z 29012G18KT 16/M03 A2992 RMK A01 T01581027  RH  028%=      5-min Rain = 0
KMC1 190536Z 29016KT 16/M03 A2992 RMK A01 T01571028  RH  028%=      5-min Rain = 0
KMC1 190537Z 30009KT 16/M03 A2992 RMK A01 T01571028  RH  028%=      5-min Rain = 0
KMC1 190538Z 30013G18KT 16/M03 A2992 RMK A01 T01571025  RH  028%=      5-min Rain = 0
KMC1 190539Z 29015KT 16/M02 A2992 RMK A01 T01561024  RH  029%=      5-min Rain = 0
KMC1 190540Z 28017G23KT 16/M03 A2991 RMK A01 T01561028  RH  028%=      5-min Rain = 0
KMC1 190541Z 30012G18KT 16/M03 A2992 RMK A01 T01561029  RH  028%=      5-min Rain = 0
KMC1 190542Z 30014KT 16/M03 A2992 RMK A01 T01561028  RH  028%=      5-min Rain = 0
KMC1 190543Z 29016KT 16/M03 A2992 RMK A01 T01561028  RH  028%=      5-min Rain = 0
KMC1 190544Z 29015G22KT 16/M03 A2992 RMK A01 T01561028  RH  028%=      5-min Rain = 0
KMC1 190545Z 29014G19KT 16/M03 A2992 RMK A01 T01561030  RH  028%=      5-min Rain = 0
KMC1 190546Z 29013KT 16/M03 A2992 RMK A01 T01561030  RH  028%=      5-min Rain = 0
KMC1 190547Z 29016KT 16/M03 A2992 RMK A01 T01571029  RH  028%=      5-min Rain = 0
KMC1 190548Z 29013G18KT 16/M03 A2992 RMK A01 T01561030  RH  028%=      5-min Rain = 0
KMC1 190549Z 28011G16KT 16/M03 A2992 RMK A01 T01561030  RH  028%=      5-min Rain = 0
KMC1 190550Z 29011KT 16/M03 A2992 RMK A01 T01561029  RH  028%=      5-min Rain = 0
KMC1 190551Z 28012G19KT 16/M03 A2992 RMK A01 T01551029  RH  028%=      5-min Rain = 0
KMC1 190552Z 29014KT 16/M03 A2992 RMK A01 T01551030  RH  028%=      5-min Rain = 0
KMC1 190553Z 29017G24KT 16/M03 A2992 RMK A01 T01551030  RH  028%=      5-min Rain = 0
KMC1 190554Z 29017KT 16/M03 A2992 RMK A01 T01551030  RH  028%=      5-min Rain = 0
KMC1 190555Z 29012G18KT 16/M03 A2992 RMK A01 T01551030  RH  028%=      5-min Rain = 0
KMC1 190556Z 29009KT 15/M03 A2992 RMK A01 T01541029  RH  028%=      5-min Rain = 0
KMC1 190557Z 29013KT 15/M03 A2992 RMK A01 T01541029  RH  028%=      5-min Rain = 0
KMC1 190558Z 29012G17KT 15/M03 A2992 RMK A01 T01531027  RH  029%=      5-min Rain = 0
KMC1 190559Z 29018G25KT 15/M03 A2992 RMK A01 T01531027  RH  029%=      5-min Rain = 0

Page generated in 0.0835 seconds.